<?xml version="1.0" encoding="UTF-8" standalone="no" ?><gpx xmlns="http://www.topografix.com/GPX/1/1" xmlns:gpxx="http://www.garmin.com/xmlschemas/GpxExtensions/v3" xmlns:wptx1="http://www.garmin.com/xmlschemas/WaypointExtension/v1" xmlns:gpxtpx="http://www.garmin.com/xmlschemas/TrackPointExtension/v1" creator="GuideVTT.com" version="1.1" xmlns:xsi="http://www.w3.org/2001/XMLSchema-instance" xsi:schemaLocation="http://www.topografix.com/GPX/1/1 http://www.topografix.com/GPX/1/1/gpx.xsd http://www.garmin.com/xmlschemas/GpxExtensions/v3 http://www8.garmin.com/xmlschemas/GpxExtensionsv3.xsd http://www.garmin.com/xmlschemas/WaypointExtension/v1 http://www8.garmin.com/xmlschemas/WaypointExtensionv1.xsd http://www.garmin.com/xmlschemas/TrackPointExtension/v1 http://www.garmin.com/xmlschemas/TrackPointExtensionv1.xsd">
<metadata><link href="http://www.garmin.com"><text>Garmin International</text></link><time>2013-06-22T15:13:50Z</time></metadata>
<trk><name>gato.gpx</name><extensions><gpxx:TrackExtension><gpxx:DisplayColor>Cyan</gpxx:DisplayColor></gpxx:TrackExtension></extensions><trkseg>
<trkpt lat="46.6025" lon="7.092463"><ele></ele><time>2019-9-4T8:11:58Z</time></trkpt>
<trkpt lat="46.6025" lon="7.092463"><ele></ele><time>2019-9-4T8:12:1Z</time></trkpt>
<trkpt lat="46.602553" lon="7.092255"><ele></ele><time>2019-9-4T8:12:4Z</time></trkpt>
<trkpt lat="46.602789" lon="7.092152"><ele></ele><time>2019-9-4T8:12:7Z</time></trkpt>
<trkpt lat="46.602951" lon="7.091941"><ele></ele><time>2019-9-4T8:12:10Z</time></trkpt>
<trkpt lat="46.602994" lon="7.091874"><ele></ele><time>2019-9-4T8:12:13Z</time></trkpt>
<trkpt lat="46.603133" lon="7.091432"><ele></ele><time>2019-9-4T8:12:16Z</time></trkpt>
<trkpt lat="46.603084" lon="7.091088"><ele></ele><time>2019-9-4T8:12:19Z</time></trkpt>
<trkpt lat="46.603042" lon="7.090878"><ele></ele><time>2019-9-4T8:12:22Z</time></trkpt>
<trkpt lat="46.603081" lon="7.090609"><ele></ele><time>2019-9-4T8:12:25Z</time></trkpt>
<trkpt lat="46.603164" lon="7.090426"><ele></ele><time>2019-9-4T8:12:28Z</time></trkpt>
<trkpt lat="46.60325" lon="7.090173"><ele></ele><time>2019-9-4T8:12:31Z</time></trkpt>
<trkpt lat="46.603303" lon="7.089674"><ele></ele><time>2019-9-4T8:12:34Z</time></trkpt>
<trkpt lat="46.603303" lon="7.089674"><ele></ele><time>2019-9-4T8:12:37Z</time></trkpt>
<trkpt lat="46.603303" lon="7.089674"><ele></ele><time>2019-9-4T8:12:40Z</time></trkpt>
<trkpt lat="46.603303" lon="7.089674"><ele></ele><time>2019-9-4T8:12:43Z</time></trkpt>
<trkpt lat="46.603386" lon="7.089465"><ele></ele><time>2019-9-4T8:12:46Z</time></trkpt>
<trkpt lat="46.603524" lon="7.089275"><ele></ele><time>2019-9-4T8:12:49Z</time></trkpt>
<trkpt lat="46.603735" lon="7.089134"><ele></ele><time>2019-9-4T8:12:52Z</time></trkpt>
<trkpt lat="46.603931" lon="7.089259"><ele></ele><time>2019-9-4T8:12:55Z</time></trkpt>
<trkpt lat="46.604186" lon="7.089431"><ele></ele><time>2019-9-4T8:12:58Z</time></trkpt>
<trkpt lat="46.604364" lon="7.089404"><ele></ele><time>2019-9-4T8:13:1Z</time></trkpt>
<trkpt lat="46.604594" lon="7.089143"><ele></ele><time>2019-9-4T8:13:4Z</time></trkpt>
<trkpt lat="46.604831" lon="7.088983"><ele></ele><time>2019-9-4T8:13:7Z</time></trkpt>
<trkpt lat="46.605" lon="7.088808"><ele></ele><time>2019-9-4T8:13:10Z</time></trkpt>
<trkpt lat="46.605372" lon="7.088454"><ele></ele><time>2019-9-4T8:13:13Z</time></trkpt>
<trkpt lat="46.6056" lon="7.087964"><ele></ele><time>2019-9-4T8:13:16Z</time></trkpt>
<trkpt lat="46.605683" lon="7.087648"><ele></ele><time>2019-9-4T8:13:19Z</time></trkpt>
<trkpt lat="46.60586" lon="7.087166"><ele></ele><time>2019-9-4T8:13:22Z</time></trkpt>
<trkpt lat="46.605992" lon="7.08691"><ele></ele><time>2019-9-4T8:13:25Z</time></trkpt>
<trkpt lat="46.606194" lon="7.086608"><ele></ele><time>2019-9-4T8:13:28Z</time></trkpt>
<trkpt lat="46.606341" lon="7.086381"><ele></ele><time>2019-9-4T8:13:31Z</time></trkpt>
<trkpt lat="46.606477" lon="7.086121"><ele></ele><time>2019-9-4T8:13:34Z</time></trkpt>
<trkpt lat="46.606611" lon="7.085775"><ele></ele><time>2019-9-4T8:13:37Z</time></trkpt>
<trkpt lat="46.606706" lon="7.085531"><ele></ele><time>2019-9-4T8:13:40Z</time></trkpt>
<trkpt lat="46.606762" lon="7.085382"><ele></ele><time>2019-9-4T8:13:43Z</time></trkpt>
<trkpt lat="46.606955" lon="7.085237"><ele></ele><time>2019-9-4T8:13:46Z</time></trkpt>
<trkpt lat="46.607153" lon="7.085436"><ele></ele><time>2019-9-4T8:13:49Z</time></trkpt>
<trkpt lat="46.607405" lon="7.085581"><ele></ele><time>2019-9-4T8:13:52Z</time></trkpt>
<trkpt lat="46.607649" lon="7.085815"><ele></ele><time>2019-9-4T8:13:55Z</time></trkpt>
<trkpt lat="46.607882" lon="7.085894"><ele></ele><time>2019-9-4T8:13:58Z</time></trkpt>
<trkpt lat="46.607997" lon="7.085951"><ele></ele><time>2019-9-4T8:14:1Z</time></trkpt>
<trkpt lat="46.608243" lon="7.08601"><ele></ele><time>2019-9-4T8:14:4Z</time></trkpt>
<trkpt lat="46.60838" lon="7.085767"><ele></ele><time>2019-9-4T8:14:7Z</time></trkpt>
<trkpt lat="46.608492" lon="7.08545"><ele></ele><time>2019-9-4T8:14:10Z</time></trkpt>
<trkpt lat="46.608642" lon="7.085187"><ele></ele><time>2019-9-4T8:14:13Z</time></trkpt>
<trkpt lat="46.608793" lon="7.085093"><ele></ele><time>2019-9-4T8:14:16Z</time></trkpt>
<trkpt lat="46.60894" lon="7.085051"><ele></ele><time>2019-9-4T8:14:19Z</time></trkpt>
<trkpt lat="46.609167" lon="7.08512"><ele></ele><time>2019-9-4T8:14:22Z</time></trkpt>
<trkpt lat="46.609456" lon="7.084927"><ele></ele><time>2019-9-4T8:14:25Z</time></trkpt>
<trkpt lat="46.609631" lon="7.084852"><ele></ele><time>2019-9-4T8:14:28Z</time></trkpt>
<trkpt lat="46.610114" lon="7.084998"><ele></ele><time>2019-9-4T8:14:31Z</time></trkpt>
<trkpt lat="46.610449" lon="7.085097"><ele></ele><time>2019-9-4T8:14:34Z</time></trkpt>
<trkpt lat="46.610738" lon="7.084986"><ele></ele><time>2019-9-4T8:14:37Z</time></trkpt>
<trkpt lat="46.610943" lon="7.084837"><ele></ele><time>2019-9-4T8:14:40Z</time></trkpt>
<trkpt lat="46.611196" lon="7.08466"><ele></ele><time>2019-9-4T8:14:43Z</time></trkpt>
<trkpt lat="46.611309" lon="7.084551"><ele></ele><time>2019-9-4T8:14:46Z</time></trkpt>
<trkpt lat="46.611358" lon="7.084525"><ele></ele><time>2019-9-4T8:14:49Z</time></trkpt>
<trkpt lat="46.611358" lon="7.084525"><ele></ele><time>2019-9-4T8:14:52Z</time></trkpt>
<trkpt lat="46.611358" lon="7.084525"><ele></ele><time>2019-9-4T8:14:55Z</time></trkpt>
<trkpt lat="46.6117" lon="7.084235"><ele></ele><time>2019-9-4T8:14:58Z</time></trkpt>
<trkpt lat="46.611964" lon="7.083989"><ele></ele><time>2019-9-4T8:15:1Z</time></trkpt>
<trkpt lat="46.612125" lon="7.083733"><ele></ele><time>2019-9-4T8:15:4Z</time></trkpt>
<trkpt lat="46.611946" lon="7.083174"><ele></ele><time>2019-9-4T8:15:7Z</time></trkpt>
<trkpt lat="46.611976" lon="7.082744"><ele></ele><time>2019-9-4T8:15:10Z</time></trkpt>
<trkpt lat="46.612049" lon="7.082267"><ele></ele><time>2019-9-4T8:15:13Z</time></trkpt>
<trkpt lat="46.61199" lon="7.082006"><ele></ele><time>2019-9-4T8:15:16Z</time></trkpt>
<trkpt lat="46.611859" lon="7.081651"><ele></ele><time>2019-9-4T8:15:19Z</time></trkpt>
<trkpt lat="46.611669" lon="7.081242"><ele></ele><time>2019-9-4T8:15:22Z</time></trkpt>
<trkpt lat="46.611559" lon="7.080849"><ele></ele><time>2019-9-4T8:15:25Z</time></trkpt>
<trkpt lat="46.611326" lon="7.080616"><ele></ele><time>2019-9-4T8:15:28Z</time></trkpt>
<trkpt lat="46.611011" lon="7.080441"><ele></ele><time>2019-9-4T8:15:31Z</time></trkpt>
<trkpt lat="46.610674" lon="7.080233"><ele></ele><time>2019-9-4T8:15:34Z</time></trkpt>
<trkpt lat="46.610425" lon="7.080003"><ele></ele><time>2019-9-4T8:15:37Z</time></trkpt>
<trkpt lat="46.610066" lon="7.079813"><ele></ele><time>2019-9-4T8:15:40Z</time></trkpt>
<trkpt lat="46.609788" lon="7.07964"><ele></ele><time>2019-9-4T8:15:43Z</time></trkpt>
<trkpt lat="46.609603" lon="7.079399"><ele></ele><time>2019-9-4T8:15:46Z</time></trkpt>
<trkpt lat="46.609417" lon="7.07912"><ele></ele><time>2019-9-4T8:15:49Z</time></trkpt>
<trkpt lat="46.609238" lon="7.07888"><ele></ele><time>2019-9-4T8:15:52Z</time></trkpt>
<trkpt lat="46.609079" lon="7.078583"><ele></ele><time>2019-9-4T8:15:55Z</time></trkpt>
<trkpt lat="46.608995" lon="7.078267"><ele></ele><time>2019-9-4T8:15:58Z</time></trkpt>
<trkpt lat="46.608856" lon="7.077876"><ele></ele><time>2019-9-4T8:16:1Z</time></trkpt>
<trkpt lat="46.608795" lon="7.07751"><ele></ele><time>2019-9-4T8:16:4Z</time></trkpt>
<trkpt lat="46.608746" lon="7.076731"><ele></ele><time>2019-9-4T8:16:7Z</time></trkpt>
<trkpt lat="46.608806" lon="7.075859"><ele></ele><time>2019-9-4T8:16:10Z</time></trkpt>
<trkpt lat="46.608535" lon="7.07483"><ele></ele><time>2019-9-4T8:16:13Z</time></trkpt>
<trkpt lat="46.608563" lon="7.073971"><ele></ele><time>2019-9-4T8:16:16Z</time></trkpt>
<trkpt lat="46.608551" lon="7.07367"><ele></ele><time>2019-9-4T8:16:19Z</time></trkpt>
<trkpt lat="46.608515" lon="7.073397"><ele></ele><time>2019-9-4T8:16:22Z</time></trkpt>
<trkpt lat="46.608508" lon="7.073124"><ele></ele><time>2019-9-4T8:16:25Z</time></trkpt>
<trkpt lat="46.608651" lon="7.072896"><ele></ele><time>2019-9-4T8:16:28Z</time></trkpt>
<trkpt lat="46.608803" lon="7.072619"><ele></ele><time>2019-9-4T8:16:31Z</time></trkpt>
<trkpt lat="46.608921" lon="7.07225"><ele></ele><time>2019-9-4T8:16:34Z</time></trkpt>
<trkpt lat="46.608999" lon="7.071765"><ele></ele><time>2019-9-4T8:16:37Z</time></trkpt>
<trkpt lat="46.609045" lon="7.071276"><ele></ele><time>2019-9-4T8:16:40Z</time></trkpt>
<trkpt lat="46.609047" lon="7.070917"><ele></ele><time>2019-9-4T8:16:43Z</time></trkpt>
<trkpt lat="46.609063" lon="7.070772"><ele></ele><time>2019-9-4T8:16:46Z</time></trkpt>
<trkpt lat="46.609063" lon="7.070772"><ele></ele><time>2019-9-4T8:16:49Z</time></trkpt>
<trkpt lat="46.609063" lon="7.070772"><ele></ele><time>2019-9-4T8:16:52Z</time></trkpt>
<trkpt lat="46.609016" lon="7.070471"><ele></ele><time>2019-9-4T8:16:55Z</time></trkpt>
<trkpt lat="46.608947" lon="7.070347"><ele></ele><time>2019-9-4T8:16:58Z</time></trkpt>
<trkpt lat="46.608828" lon="7.069768"><ele></ele><time>2019-9-4T8:17:1Z</time></trkpt>
<trkpt lat="46.608838" lon="7.069318"><ele></ele><time>2019-9-4T8:17:4Z</time></trkpt>
<trkpt lat="46.608847" lon="7.068976"><ele></ele><time>2019-9-4T8:17:7Z</time></trkpt>
<trkpt lat="46.608827" lon="7.068564"><ele></ele><time>2019-9-4T8:17:10Z</time></trkpt>
<trkpt lat="46.608631" lon="7.06834"><ele></ele><time>2019-9-4T8:17:13Z</time></trkpt>
<trkpt lat="46.608439" lon="7.068086"><ele></ele><time>2019-9-4T8:17:16Z</time></trkpt>
<trkpt lat="46.608185" lon="7.067856"><ele></ele><time>2019-9-4T8:17:19Z</time></trkpt>
<trkpt lat="46.607983" lon="7.06754"><ele></ele><time>2019-9-4T8:17:22Z</time></trkpt>
<trkpt lat="46.607788" lon="7.067266"><ele></ele><time>2019-9-4T8:17:25Z</time></trkpt>
<trkpt lat="46.607576" lon="7.067158"><ele></ele><time>2019-9-4T8:17:28Z</time></trkpt>
<trkpt lat="46.60739" lon="7.067088"><ele></ele><time>2019-9-4T8:17:31Z</time></trkpt>
<trkpt lat="46.607262" lon="7.067203"><ele></ele><time>2019-9-4T8:17:34Z</time></trkpt>
<trkpt lat="46.607055" lon="7.067458"><ele></ele><time>2019-9-4T8:17:37Z</time></trkpt>
<trkpt lat="46.606772" lon="7.067718"><ele></ele><time>2019-9-4T8:17:40Z</time></trkpt>
<trkpt lat="46.606383" lon="7.068112"><ele></ele><time>2019-9-4T8:17:43Z</time></trkpt>
<trkpt lat="46.606182" lon="7.068286"><ele></ele><time>2019-9-4T8:17:46Z</time></trkpt>
<trkpt lat="46.605992" lon="7.068467"><ele></ele><time>2019-9-4T8:17:49Z</time></trkpt>
<trkpt lat="46.605621" lon="7.068994"><ele></ele><time>2019-9-4T8:17:52Z</time></trkpt>
<trkpt lat="46.605318" lon="7.069445"><ele></ele><time>2019-9-4T8:17:55Z</time></trkpt>
<trkpt lat="46.605002" lon="7.069928"><ele></ele><time>2019-9-4T8:17:58Z</time></trkpt>
<trkpt lat="46.604574" lon="7.070564"><ele></ele><time>2019-9-4T8:18:1Z</time></trkpt>
<trkpt lat="46.604233" lon="7.070787"><ele></ele><time>2019-9-4T8:18:4Z</time></trkpt>
<trkpt lat="46.604336" lon="7.07046"><ele></ele><time>2019-9-4T8:18:7Z</time></trkpt>
<trkpt lat="46.604582" lon="7.07018"><ele></ele><time>2019-9-4T8:18:10Z</time></trkpt>
<trkpt lat="46.604664" lon="7.06986"><ele></ele><time>2019-9-4T8:18:13Z</time></trkpt>
<trkpt lat="46.604751" lon="7.069426"><ele></ele><time>2019-9-4T8:18:16Z</time></trkpt>
<trkpt lat="46.604673" lon="7.069226"><ele></ele><time>2019-9-4T8:18:19Z</time></trkpt>
<trkpt lat="46.604528" lon="7.069098"><ele></ele><time>2019-9-4T8:18:22Z</time></trkpt>
<trkpt lat="46.604389" lon="7.069056"><ele></ele><time>2019-9-4T8:18:25Z</time></trkpt>
<trkpt lat="46.604184" lon="7.069028"><ele></ele><time>2019-9-4T8:18:28Z</time></trkpt>
<trkpt lat="46.603991" lon="7.068989"><ele></ele><time>2019-9-4T8:18:31Z</time></trkpt>
<trkpt lat="46.603975" lon="7.068764"><ele></ele><time>2019-9-4T8:18:34Z</time></trkpt>
<trkpt lat="46.603975" lon="7.068764"><ele></ele><time>2019-9-4T8:18:37Z</time></trkpt>
<trkpt lat="46.603975" lon="7.068764"><ele></ele><time>2019-9-4T8:18:40Z</time></trkpt>
<trkpt lat="46.603975" lon="7.068764"><ele></ele><time>2019-9-4T8:18:43Z</time></trkpt>
<trkpt lat="46.603795" lon="7.069146"><ele></ele><time>2019-9-4T8:18:46Z</time></trkpt>
<trkpt lat="46.603696" lon="7.069415"><ele></ele><time>2019-9-4T8:18:49Z</time></trkpt>
<trkpt lat="46.603553" lon="7.069893"><ele></ele><time>2019-9-4T8:18:52Z</time></trkpt>
<trkpt lat="46.603412" lon="7.070299"><ele></ele><time>2019-9-4T8:18:55Z</time></trkpt>
<trkpt lat="46.603244" lon="7.070529"><ele></ele><time>2019-9-4T8:18:58Z</time></trkpt>
<trkpt lat="46.60314" lon="7.070808"><ele></ele><time>2019-9-4T8:19:1Z</time></trkpt>
<trkpt lat="46.603016" lon="7.071076"><ele></ele><time>2019-9-4T8:19:4Z</time></trkpt>
<trkpt lat="46.602963" lon="7.071488"><ele></ele><time>2019-9-4T8:19:7Z</time></trkpt>
<trkpt lat="46.602887" lon="7.07182"><ele></ele><time>2019-9-4T8:19:10Z</time></trkpt>
<trkpt lat="46.602751" lon="7.072141"><ele></ele><time>2019-9-4T8:19:13Z</time></trkpt>
<trkpt lat="46.602449" lon="7.072369"><ele></ele><time>2019-9-4T8:19:16Z</time></trkpt>
<trkpt lat="46.602096" lon="7.072423"><ele></ele><time>2019-9-4T8:19:19Z</time></trkpt>
<trkpt lat="46.601774" lon="7.072533"><ele></ele><time>2019-9-4T8:19:22Z</time></trkpt>
<trkpt lat="46.601412" lon="7.072521"><ele></ele><time>2019-9-4T8:19:25Z</time></trkpt>
<trkpt lat="46.601095" lon="7.072526"><ele></ele><time>2019-9-4T8:19:28Z</time></trkpt>
<trkpt lat="46.600905" lon="7.072416"><ele></ele><time>2019-9-4T8:19:31Z</time></trkpt>
<trkpt lat="46.600846" lon="7.072409"><ele></ele><time>2019-9-4T8:19:34Z</time></trkpt>
<trkpt lat="46.600846" lon="7.072409"><ele></ele><time>2019-9-4T8:19:37Z</time></trkpt>
<trkpt lat="46.600846" lon="7.072409"><ele></ele><time>2019-9-4T8:19:40Z</time></trkpt>
<trkpt lat="46.600524" lon="7.072246"><ele></ele><time>2019-9-4T8:19:43Z</time></trkpt>
<trkpt lat="46.600262" lon="7.072387"><ele></ele><time>2019-9-4T8:19:46Z</time></trkpt>
<trkpt lat="46.600064" lon="7.072528"><ele></ele><time>2019-9-4T8:19:49Z</time></trkpt>
<trkpt lat="46.599953" lon="7.072352"><ele></ele><time>2019-9-4T8:19:52Z</time></trkpt>
<trkpt lat="46.599778" lon="7.072076"><ele></ele><time>2019-9-4T8:19:55Z</time></trkpt>
<trkpt lat="46.599628" lon="7.071924"><ele></ele><time>2019-9-4T8:19:58Z</time></trkpt>
<trkpt lat="46.599467" lon="7.071756"><ele></ele><time>2019-9-4T8:20:1Z</time></trkpt>
<trkpt lat="46.599252" lon="7.071415"><ele></ele><time>2019-9-4T8:20:4Z</time></trkpt>
<trkpt lat="46.599036" lon="7.071131"><ele></ele><time>2019-9-4T8:20:7Z</time></trkpt>
<trkpt lat="46.598757" lon="7.070789"><ele></ele><time>2019-9-4T8:20:10Z</time></trkpt>
<trkpt lat="46.598446" lon="7.070437"><ele></ele><time>2019-9-4T8:20:13Z</time></trkpt>
<trkpt lat="46.598172" lon="7.070135"><ele></ele><time>2019-9-4T8:20:16Z</time></trkpt>
<trkpt lat="46.597845" lon="7.069755"><ele></ele><time>2019-9-4T8:20:19Z</time></trkpt>
<trkpt lat="46.597585" lon="7.069448"><ele></ele><time>2019-9-4T8:20:22Z</time></trkpt>
<trkpt lat="46.597288" lon="7.069102"><ele></ele><time>2019-9-4T8:20:25Z</time></trkpt>
<trkpt lat="46.59704" lon="7.068818"><ele></ele><time>2019-9-4T8:20:28Z</time></trkpt>
<trkpt lat="46.596808" lon="7.068557"><ele></ele><time>2019-9-4T8:20:31Z</time></trkpt>
<trkpt lat="46.596655" lon="7.06839"><ele></ele><time>2019-9-4T8:20:34Z</time></trkpt>
<trkpt lat="46.596384" lon="7.068071"><ele></ele><time>2019-9-4T8:20:37Z</time></trkpt>
<trkpt lat="46.596152" lon="7.067811"><ele></ele><time>2019-9-4T8:20:40Z</time></trkpt>
<trkpt lat="46.595885" lon="7.067498"><ele></ele><time>2019-9-4T8:20:43Z</time></trkpt>
<trkpt lat="46.595623" lon="7.067188"><ele></ele><time>2019-9-4T8:20:46Z</time></trkpt>
<trkpt lat="46.59538" lon="7.066864"><ele></ele><time>2019-9-4T8:20:49Z</time></trkpt>
<trkpt lat="46.595157" lon="7.066515"><ele></ele><time>2019-9-4T8:20:52Z</time></trkpt>
<trkpt lat="46.594965" lon="7.066185"><ele></ele><time>2019-9-4T8:20:55Z</time></trkpt>
<trkpt lat="46.594789" lon="7.065825"><ele></ele><time>2019-9-4T8:20:58Z</time></trkpt>
<trkpt lat="46.594636" lon="7.065473"><ele></ele><time>2019-9-4T8:21:1Z</time></trkpt>
<trkpt lat="46.594532" lon="7.065193"><ele></ele><time>2019-9-4T8:21:4Z</time></trkpt>
<trkpt lat="46.594408" lon="7.06486"><ele></ele><time>2019-9-4T8:21:7Z</time></trkpt>
<trkpt lat="46.594315" lon="7.064614"><ele></ele><time>2019-9-4T8:21:10Z</time></trkpt>
<trkpt lat="46.594164" lon="7.064135"><ele></ele><time>2019-9-4T8:21:13Z</time></trkpt>
<trkpt lat="46.594058" lon="7.063821"><ele></ele><time>2019-9-4T8:21:16Z</time></trkpt>
<trkpt lat="46.59399" lon="7.063639"><ele></ele><time>2019-9-4T8:21:19Z</time></trkpt>
<trkpt lat="46.593885" lon="7.063338"><ele></ele><time>2019-9-4T8:21:22Z</time></trkpt>
<trkpt lat="46.593744" lon="7.062955"><ele></ele><time>2019-9-4T8:21:25Z</time></trkpt>
<trkpt lat="46.593629" lon="7.062629"><ele></ele><time>2019-9-4T8:21:28Z</time></trkpt>
<trkpt lat="46.593539" lon="7.062365"><ele></ele><time>2019-9-4T8:21:31Z</time></trkpt>
<trkpt lat="46.593513" lon="7.062294"><ele></ele><time>2019-9-4T8:21:34Z</time></trkpt>
<trkpt lat="46.593513" lon="7.062294"><ele></ele><time>2019-9-4T8:21:37Z</time></trkpt>
<trkpt lat="46.593513" lon="7.062294"><ele></ele><time>2019-9-4T8:21:40Z</time></trkpt>
<trkpt lat="46.593448" lon="7.062122"><ele></ele><time>2019-9-4T8:21:43Z</time></trkpt>
<trkpt lat="46.593421" lon="7.062024"><ele></ele><time>2019-9-4T8:21:46Z</time></trkpt>
<trkpt lat="46.593421" lon="7.062024"><ele></ele><time>2019-9-4T8:21:49Z</time></trkpt>
<trkpt lat="46.593421" lon="7.062024"><ele></ele><time>2019-9-4T8:21:52Z</time></trkpt>
<trkpt lat="46.593343" lon="7.061881"><ele></ele><time>2019-9-4T8:21:55Z</time></trkpt>
<trkpt lat="46.593306" lon="7.061749"><ele></ele><time>2019-9-4T8:21:58Z</time></trkpt>
<trkpt lat="46.593306" lon="7.061749"><ele></ele><time>2019-9-4T8:22:1Z</time></trkpt>
<trkpt lat="46.593306" lon="7.061749"><ele></ele><time>2019-9-4T8:22:4Z</time></trkpt>
<trkpt lat="46.593312" lon="7.061653"><ele></ele><time>2019-9-4T8:22:7Z</time></trkpt>
<trkpt lat="46.593478" lon="7.061491"><ele></ele><time>2019-9-4T8:22:10Z</time></trkpt>
<trkpt lat="46.593565" lon="7.061363"><ele></ele><time>2019-9-4T8:22:13Z</time></trkpt>
<trkpt lat="46.593781" lon="7.061145"><ele></ele><time>2019-9-4T8:22:16Z</time></trkpt>
<trkpt lat="46.593953" lon="7.060968"><ele></ele><time>2019-9-4T8:22:19Z</time></trkpt>
<trkpt lat="46.594164" lon="7.060761"><ele></ele><time>2019-9-4T8:22:22Z</time></trkpt>
<trkpt lat="46.594274" lon="7.060644"><ele></ele><time>2019-9-4T8:22:25Z</time></trkpt>
<trkpt lat="46.594376" lon="7.060532"><ele></ele><time>2019-9-4T8:22:28Z</time></trkpt>
<trkpt lat="46.594549" lon="7.060341"><ele></ele><time>2019-9-4T8:22:31Z</time></trkpt>
<trkpt lat="46.594771" lon="7.060107"><ele></ele><time>2019-9-4T8:22:34Z</time></trkpt>
<trkpt lat="46.594897" lon="7.059926"><ele></ele><time>2019-9-4T8:22:37Z</time></trkpt>
<trkpt lat="46.595034" lon="7.059674"><ele></ele><time>2019-9-4T8:22:40Z</time></trkpt>
<trkpt lat="46.595101" lon="7.059417"><ele></ele><time>2019-9-4T8:22:43Z</time></trkpt>
<trkpt lat="46.595143" lon="7.059084"><ele></ele><time>2019-9-4T8:22:46Z</time></trkpt>
<trkpt lat="46.595162" lon="7.058975"><ele></ele><time>2019-9-4T8:22:49Z</time></trkpt>
<trkpt lat="46.59515" lon="7.0587"><ele></ele><time>2019-9-4T8:22:52Z</time></trkpt>
<trkpt lat="46.595003" lon="7.058475"><ele></ele><time>2019-9-4T8:22:55Z</time></trkpt>
<trkpt lat="46.594881" lon="7.05825"><ele></ele><time>2019-9-4T8:22:58Z</time></trkpt>
<trkpt lat="46.594718" lon="7.057938"><ele></ele><time>2019-9-4T8:23:1Z</time></trkpt>
<trkpt lat="46.594602" lon="7.057698"><ele></ele><time>2019-9-4T8:23:4Z</time></trkpt>
<trkpt lat="46.594602" lon="7.057698"><ele></ele><time>2019-9-4T8:23:7Z</time></trkpt>
<trkpt lat="46.594602" lon="7.057698"><ele></ele><time>2019-9-4T8:23:10Z</time></trkpt>
<trkpt lat="46.594602" lon="7.057698"><ele></ele><time>2019-9-4T8:23:13Z</time></trkpt>
<trkpt lat="46.594505" lon="7.057444"><ele></ele><time>2019-9-4T8:23:16Z</time></trkpt>
<trkpt lat="46.594409" lon="7.057274"><ele></ele><time>2019-9-4T8:23:19Z</time></trkpt>
<trkpt lat="46.594264" lon="7.056974"><ele></ele><time>2019-9-4T8:23:22Z</time></trkpt>
<trkpt lat="46.594107" lon="7.056675"><ele></ele><time>2019-9-4T8:23:25Z</time></trkpt>
<trkpt lat="46.59398" lon="7.056438"><ele></ele><time>2019-9-4T8:23:28Z</time></trkpt>
<trkpt lat="46.593909" lon="7.056142"><ele></ele><time>2019-9-4T8:23:31Z</time></trkpt>
<trkpt lat="46.593772" lon="7.05583"><ele></ele><time>2019-9-4T8:23:34Z</time></trkpt>
<trkpt lat="46.593677" lon="7.055568"><ele></ele><time>2019-9-4T8:23:37Z</time></trkpt>
<trkpt lat="46.593559" lon="7.055264"><ele></ele><time>2019-9-4T8:23:40Z</time></trkpt>
<trkpt lat="46.593523" lon="7.055028"><ele></ele><time>2019-9-4T8:23:43Z</time></trkpt>
<trkpt lat="46.5935" lon="7.054833"><ele></ele><time>2019-9-4T8:23:46Z</time></trkpt>
<trkpt lat="46.5935" lon="7.054833"><ele></ele><time>2019-9-4T8:23:49Z</time></trkpt>
<trkpt lat="46.5935" lon="7.054833"><ele></ele><time>2019-9-4T8:23:52Z</time></trkpt>
<trkpt lat="46.593584" lon="7.055389"><ele></ele><time>2019-9-4T8:23:55Z</time></trkpt>
<trkpt lat="46.593723" lon="7.055379"><ele></ele><time>2019-9-4T8:23:58Z</time></trkpt>
<trkpt lat="46.594049" lon="7.055306"><ele></ele><time>2019-9-4T8:24:1Z</time></trkpt>
<trkpt lat="46.594203" lon="7.05526"><ele></ele><time>2019-9-4T8:24:4Z</time></trkpt>
<trkpt lat="46.59426" lon="7.055136"><ele></ele><time>2019-9-4T8:24:7Z</time></trkpt>
<trkpt lat="46.59426" lon="7.055136"><ele></ele><time>2019-9-4T8:24:10Z</time></trkpt>
<trkpt lat="46.59426" lon="7.055136"><ele></ele><time>2019-9-4T8:24:13Z</time></trkpt>
<trkpt lat="46.594184" lon="7.054818"><ele></ele><time>2019-9-4T8:24:16Z</time></trkpt>
<trkpt lat="46.594121" lon="7.054621"><ele></ele><time>2019-9-4T8:24:19Z</time></trkpt>
<trkpt lat="46.593996" lon="7.054197"><ele></ele><time>2019-9-4T8:24:22Z</time></trkpt>
<trkpt lat="46.593924" lon="7.053916"><ele></ele><time>2019-9-4T8:24:25Z</time></trkpt>
<trkpt lat="46.593864" lon="7.053636"><ele></ele><time>2019-9-4T8:24:28Z</time></trkpt>
<trkpt lat="46.593834" lon="7.053502"><ele></ele><time>2019-9-4T8:24:31Z</time></trkpt>
<trkpt lat="46.593789" lon="7.053211"><ele></ele><time>2019-9-4T8:24:34Z</time></trkpt>
<trkpt lat="46.593755" lon="7.052878"><ele></ele><time>2019-9-4T8:24:37Z</time></trkpt>
<trkpt lat="46.593718" lon="7.052585"><ele></ele><time>2019-9-4T8:24:40Z</time></trkpt>
<trkpt lat="46.593673" lon="7.052286"><ele></ele><time>2019-9-4T8:24:43Z</time></trkpt>
<trkpt lat="46.593662" lon="7.05201"><ele></ele><time>2019-9-4T8:24:46Z</time></trkpt>
<trkpt lat="46.593648" lon="7.051926"><ele></ele><time>2019-9-4T8:24:49Z</time></trkpt>
<trkpt lat="46.593648" lon="7.051926"><ele></ele><time>2019-9-4T8:24:52Z</time></trkpt>
<trkpt lat="46.593648" lon="7.051926"><ele></ele><time>2019-9-4T8:24:55Z</time></trkpt>
<trkpt lat="46.593618" lon="7.051642"><ele></ele><time>2019-9-4T8:24:58Z</time></trkpt>
<trkpt lat="46.593557" lon="7.051325"><ele></ele><time>2019-9-4T8:25:1Z</time></trkpt>
<trkpt lat="46.593522" lon="7.051076"><ele></ele><time>2019-9-4T8:25:4Z</time></trkpt>
<trkpt lat="46.593555" lon="7.051004"><ele></ele><time>2019-9-4T8:25:7Z</time></trkpt>
<trkpt lat="46.593555" lon="7.051004"><ele></ele><time>2019-9-4T8:25:10Z</time></trkpt>
<trkpt lat="46.593555" lon="7.051004"><ele></ele><time>2019-9-4T8:25:13Z</time></trkpt>
<trkpt lat="46.593449" lon="7.050768"><ele></ele><time>2019-9-4T8:25:16Z</time></trkpt>
<trkpt lat="46.593383" lon="7.050549"><ele></ele><time>2019-9-4T8:25:19Z</time></trkpt>
<trkpt lat="46.59334" lon="7.050369"><ele></ele><time>2019-9-4T8:25:22Z</time></trkpt>
<trkpt lat="46.593285" lon="7.050102"><ele></ele><time>2019-9-4T8:25:25Z</time></trkpt>
<trkpt lat="46.593193" lon="7.049908"><ele></ele><time>2019-9-4T8:25:28Z</time></trkpt>
<trkpt lat="46.593081" lon="7.049709"><ele></ele><time>2019-9-4T8:25:31Z</time></trkpt>
<trkpt lat="46.592958" lon="7.049403"><ele></ele><time>2019-9-4T8:25:34Z</time></trkpt>
<trkpt lat="46.592856" lon="7.049233"><ele></ele><time>2019-9-4T8:25:37Z</time></trkpt>
<trkpt lat="46.592754" lon="7.048998"><ele></ele><time>2019-9-4T8:25:40Z</time></trkpt>
<trkpt lat="46.592671" lon="7.048803"><ele></ele><time>2019-9-4T8:25:43Z</time></trkpt>
<trkpt lat="46.592671" lon="7.048803"><ele></ele><time>2019-9-4T8:25:46Z</time></trkpt>
<trkpt lat="46.592671" lon="7.048803"><ele></ele><time>2019-9-4T8:25:49Z</time></trkpt>
<trkpt lat="46.592671" lon="7.048803"><ele></ele><time>2019-9-4T8:25:52Z</time></trkpt>
<trkpt lat="46.592536" lon="7.048658"><ele></ele><time>2019-9-4T8:25:55Z</time></trkpt>
<trkpt lat="46.592394" lon="7.048481"><ele></ele><time>2019-9-4T8:25:58Z</time></trkpt>
<trkpt lat="46.592299" lon="7.048247"><ele></ele><time>2019-9-4T8:26:1Z</time></trkpt>
<trkpt lat="46.59222" lon="7.048049"><ele></ele><time>2019-9-4T8:26:4Z</time></trkpt>
<trkpt lat="46.592167" lon="7.047871"><ele></ele><time>2019-9-4T8:26:7Z</time></trkpt>
<trkpt lat="46.592167" lon="7.047871"><ele></ele><time>2019-9-4T8:26:10Z</time></trkpt>
<trkpt lat="46.592167" lon="7.047871"><ele></ele><time>2019-9-4T8:26:13Z</time></trkpt>
<trkpt lat="46.592167" lon="7.047871"><ele></ele><time>2019-9-4T8:26:16Z</time></trkpt>
<trkpt lat="46.592026" lon="7.047277"><ele></ele><time>2019-9-4T8:26:19Z</time></trkpt>
<trkpt lat="46.592026" lon="7.047277"><ele></ele><time>2019-9-4T8:26:22Z</time></trkpt>
<trkpt lat="46.592026" lon="7.047277"><ele></ele><time>2019-9-4T8:26:25Z</time></trkpt>
<trkpt lat="46.592026" lon="7.047277"><ele></ele><time>2019-9-4T8:26:28Z</time></trkpt>
<trkpt lat="46.592022" lon="7.045996"><ele></ele><time>2019-9-4T8:26:31Z</time></trkpt>
<trkpt lat="46.59202" lon="7.045969"><ele></ele><time>2019-9-4T8:26:34Z</time></trkpt>
<trkpt lat="46.59202" lon="7.045969"><ele></ele><time>2019-9-4T8:26:37Z</time></trkpt>
<trkpt lat="46.59202" lon="7.045969"><ele></ele><time>2019-9-4T8:26:40Z</time></trkpt>
<trkpt lat="46.591887" lon="7.045454"><ele></ele><time>2019-9-4T8:26:43Z</time></trkpt>
<trkpt lat="46.591887" lon="7.045454"><ele></ele><time>2019-9-4T8:26:46Z</time></trkpt>
<trkpt lat="46.591887" lon="7.045454"><ele></ele><time>2019-9-4T8:26:49Z</time></trkpt>
<trkpt lat="46.591887" lon="7.045454"><ele></ele><time>2019-9-4T8:26:52Z</time></trkpt>
<trkpt lat="46.59173" lon="7.045119"><ele></ele><time>2019-9-4T8:26:55Z</time></trkpt>
<trkpt lat="46.591704" lon="7.0451"><ele></ele><time>2019-9-4T8:26:58Z</time></trkpt>
<trkpt lat="46.591704" lon="7.0451"><ele></ele><time>2019-9-4T8:27:1Z</time></trkpt>
<trkpt lat="46.591704" lon="7.0451"><ele></ele><time>2019-9-4T8:27:4Z</time></trkpt>
<trkpt lat="46.591366" lon="7.044516"><ele></ele><time>2019-9-4T8:27:7Z</time></trkpt>
<trkpt lat="46.591366" lon="7.044516"><ele></ele><time>2019-9-4T8:27:10Z</time></trkpt>
<trkpt lat="46.591366" lon="7.044516"><ele></ele><time>2019-9-4T8:27:13Z</time></trkpt>
<trkpt lat="46.591366" lon="7.044516"><ele></ele><time>2019-9-4T8:27:16Z</time></trkpt>
<trkpt lat="46.591001" lon="7.044336"><ele></ele><time>2019-9-4T8:27:19Z</time></trkpt>
<trkpt lat="46.590901" lon="7.0443"><ele></ele><time>2019-9-4T8:27:22Z</time></trkpt>
<trkpt lat="46.590901" lon="7.0443"><ele></ele><time>2019-9-4T8:27:25Z</time></trkpt>
<trkpt lat="46.590901" lon="7.0443"><ele></ele><time>2019-9-4T8:27:28Z</time></trkpt>
<trkpt lat="46.590901" lon="7.0443"><ele></ele><time>2019-9-4T8:27:31Z</time></trkpt>
<trkpt lat="46.59029" lon="7.043622"><ele></ele><time>2019-9-4T8:27:34Z</time></trkpt>
<trkpt lat="46.59029" lon="7.043622"><ele></ele><time>2019-9-4T8:27:37Z</time></trkpt>
<trkpt lat="46.59029" lon="7.043622"><ele></ele><time>2019-9-4T8:27:40Z</time></trkpt>
<trkpt lat="46.59029" lon="7.043622"><ele></ele><time>2019-9-4T8:27:43Z</time></trkpt>
<trkpt lat="46.590057" lon="7.042545"><ele></ele><time>2019-9-4T8:27:46Z</time></trkpt>
<trkpt lat="46.590103" lon="7.042567"><ele></ele><time>2019-9-4T8:27:49Z</time></trkpt>
<trkpt lat="46.590103" lon="7.042567"><ele></ele><time>2019-9-4T8:27:52Z</time></trkpt>
<trkpt lat="46.590103" lon="7.042567"><ele></ele><time>2019-9-4T8:27:55Z</time></trkpt>
<trkpt lat="46.590314" lon="7.042563"><ele></ele><time>2019-9-4T8:27:58Z</time></trkpt>
<trkpt lat="46.590496" lon="7.042459"><ele></ele><time>2019-9-4T8:28:1Z</time></trkpt>
<trkpt lat="46.590682" lon="7.042314"><ele></ele><time>2019-9-4T8:28:4Z</time></trkpt>
<trkpt lat="46.590882" lon="7.04215"><ele></ele><time>2019-9-4T8:28:7Z</time></trkpt>
<trkpt lat="46.591112" lon="7.041969"><ele></ele><time>2019-9-4T8:28:10Z</time></trkpt>
<trkpt lat="46.591303" lon="7.041857"><ele></ele><time>2019-9-4T8:28:13Z</time></trkpt>
<trkpt lat="46.591541" lon="7.04175"><ele></ele><time>2019-9-4T8:28:16Z</time></trkpt>
<trkpt lat="46.5918" lon="7.041688"><ele></ele><time>2019-9-4T8:28:19Z</time></trkpt>
<trkpt lat="46.592069" lon="7.04174"><ele></ele><time>2019-9-4T8:28:22Z</time></trkpt>
<trkpt lat="46.592301" lon="7.041697"><ele></ele><time>2019-9-4T8:28:25Z</time></trkpt>
<trkpt lat="46.592505" lon="7.04158"><ele></ele><time>2019-9-4T8:28:28Z</time></trkpt>
<trkpt lat="46.592777" lon="7.041481"><ele></ele><time>2019-9-4T8:28:31Z</time></trkpt>
<trkpt lat="46.593008" lon="7.041423"><ele></ele><time>2019-9-4T8:28:34Z</time></trkpt>
<trkpt lat="46.593399" lon="7.041379"><ele></ele><time>2019-9-4T8:28:37Z</time></trkpt>
<trkpt lat="46.593554" lon="7.041307"><ele></ele><time>2019-9-4T8:28:40Z</time></trkpt>
<trkpt lat="46.593627" lon="7.041274"><ele></ele><time>2019-9-4T8:28:43Z</time></trkpt>
<trkpt lat="46.593627" lon="7.041274"><ele></ele><time>2019-9-4T8:28:46Z</time></trkpt>
<trkpt lat="46.593627" lon="7.041274"><ele></ele><time>2019-9-4T8:28:49Z</time></trkpt>
<trkpt lat="46.593763" lon="7.041193"><ele></ele><time>2019-9-4T8:28:52Z</time></trkpt>
<trkpt lat="46.593909" lon="7.04112"><ele></ele><time>2019-9-4T8:28:55Z</time></trkpt>
<trkpt lat="46.594164" lon="7.04096"><ele></ele><time>2019-9-4T8:28:58Z</time></trkpt>
<trkpt lat="46.594557" lon="7.040625"><ele></ele><time>2019-9-4T8:29:1Z</time></trkpt>
<trkpt lat="46.594995" lon="7.040422"><ele></ele><time>2019-9-4T8:29:4Z</time></trkpt>
<trkpt lat="46.595539" lon="7.040087"><ele></ele><time>2019-9-4T8:29:7Z</time></trkpt>
<trkpt lat="46.596087" lon="7.039941"><ele></ele><time>2019-9-4T8:29:10Z</time></trkpt>
<trkpt lat="46.596609" lon="7.039948"><ele></ele><time>2019-9-4T8:29:13Z</time></trkpt>
<trkpt lat="46.596991" lon="7.040103"><ele></ele><time>2019-9-4T8:29:16Z</time></trkpt>
<trkpt lat="46.59749" lon="7.039912"><ele></ele><time>2019-9-4T8:29:19Z</time></trkpt>
<trkpt lat="46.597911" lon="7.039708"><ele></ele><time>2019-9-4T8:29:22Z</time></trkpt>
<trkpt lat="46.598207" lon="7.039462"><ele></ele><time>2019-9-4T8:29:25Z</time></trkpt>
<trkpt lat="46.598328" lon="7.039326"><ele></ele><time>2019-9-4T8:29:28Z</time></trkpt>
<trkpt lat="46.598541" lon="7.039025"><ele></ele><time>2019-9-4T8:29:31Z</time></trkpt>
<trkpt lat="46.598712" lon="7.038763"><ele></ele><time>2019-9-4T8:29:34Z</time></trkpt>
<trkpt lat="46.598869" lon="7.038548"><ele></ele><time>2019-9-4T8:29:37Z</time></trkpt>
<trkpt lat="46.598863" lon="7.038303"><ele></ele><time>2019-9-4T8:29:40Z</time></trkpt>
<trkpt lat="46.598569" lon="7.038235"><ele></ele><time>2019-9-4T8:29:43Z</time></trkpt>
<trkpt lat="46.598383" lon="7.038136"><ele></ele><time>2019-9-4T8:29:46Z</time></trkpt>
<trkpt lat="46.598161" lon="7.038031"><ele></ele><time>2019-9-4T8:29:49Z</time></trkpt>
<trkpt lat="46.598027" lon="7.037923"><ele></ele><time>2019-9-4T8:29:52Z</time></trkpt>
<trkpt lat="46.597817" lon="7.037791"><ele></ele><time>2019-9-4T8:29:55Z</time></trkpt>
<trkpt lat="46.597665" lon="7.037722"><ele></ele><time>2019-9-4T8:29:58Z</time></trkpt>
<trkpt lat="46.597617" lon="7.037709"><ele></ele><time>2019-9-4T8:30:1Z</time></trkpt>
<trkpt lat="46.597617" lon="7.037709"><ele></ele><time>2019-9-4T8:30:4Z</time></trkpt>
<trkpt lat="46.597617" lon="7.037709"><ele></ele><time>2019-9-4T8:30:7Z</time></trkpt>
<trkpt lat="46.597392" lon="7.037692"><ele></ele><time>2019-9-4T8:30:10Z</time></trkpt>
<trkpt lat="46.597239" lon="7.037776"><ele></ele><time>2019-9-4T8:30:13Z</time></trkpt>
<trkpt lat="46.597239" lon="7.037776"><ele></ele><time>2019-9-4T8:30:16Z</time></trkpt>
<trkpt lat="46.597239" lon="7.037776"><ele></ele><time>2019-9-4T8:30:19Z</time></trkpt>
<trkpt lat="46.597239" lon="7.037776"><ele></ele><time>2019-9-4T8:30:22Z</time></trkpt>
<trkpt lat="46.597025" lon="7.037925"><ele></ele><time>2019-9-4T8:30:25Z</time></trkpt>
<trkpt lat="46.596818" lon="7.038168"><ele></ele><time>2019-9-4T8:30:28Z</time></trkpt>
<trkpt lat="46.596656" lon="7.038343"><ele></ele><time>2019-9-4T8:30:31Z</time></trkpt>
<trkpt lat="46.596544" lon="7.038495"><ele></ele><time>2019-9-4T8:30:34Z</time></trkpt>
<trkpt lat="46.59638" lon="7.038626"><ele></ele><time>2019-9-4T8:30:37Z</time></trkpt>
<trkpt lat="46.596171" lon="7.03861"><ele></ele><time>2019-9-4T8:30:40Z</time></trkpt>
<trkpt lat="46.596021" lon="7.038471"><ele></ele><time>2019-9-4T8:30:43Z</time></trkpt>
<trkpt lat="46.595882" lon="7.038414"><ele></ele><time>2019-9-4T8:30:46Z</time></trkpt>
<trkpt lat="46.595882" lon="7.038414"><ele></ele><time>2019-9-4T8:30:49Z</time></trkpt>
<trkpt lat="46.595882" lon="7.038414"><ele></ele><time>2019-9-4T8:30:52Z</time></trkpt>
<trkpt lat="46.595692" lon="7.038435"><ele></ele><time>2019-9-4T8:30:55Z</time></trkpt>
<trkpt lat="46.595448" lon="7.038394"><ele></ele><time>2019-9-4T8:30:58Z</time></trkpt>
<trkpt lat="46.595289" lon="7.038343"><ele></ele><time>2019-9-4T8:31:1Z</time></trkpt>
<trkpt lat="46.595086" lon="7.038246"><ele></ele><time>2019-9-4T8:31:4Z</time></trkpt>
<trkpt lat="46.594951" lon="7.038183"><ele></ele><time>2019-9-4T8:31:7Z</time></trkpt>
<trkpt lat="46.59476" lon="7.03811"><ele></ele><time>2019-9-4T8:31:10Z</time></trkpt>
<trkpt lat="46.594596" lon="7.038002"><ele></ele><time>2019-9-4T8:31:13Z</time></trkpt>
<trkpt lat="46.594486" lon="7.037797"><ele></ele><time>2019-9-4T8:31:16Z</time></trkpt>
<trkpt lat="46.594457" lon="7.037475"><ele></ele><time>2019-9-4T8:31:19Z</time></trkpt>
<trkpt lat="46.594477" lon="7.037199"><ele></ele><time>2019-9-4T8:31:22Z</time></trkpt>
<trkpt lat="46.594495" lon="7.036881"><ele></ele><time>2019-9-4T8:31:25Z</time></trkpt>
<trkpt lat="46.59454" lon="7.036565"><ele></ele><time>2019-9-4T8:31:28Z</time></trkpt>
<trkpt lat="46.594633" lon="7.036332"><ele></ele><time>2019-9-4T8:31:31Z</time></trkpt>
<trkpt lat="46.594742" lon="7.036148"><ele></ele><time>2019-9-4T8:31:34Z</time></trkpt>
<trkpt lat="46.594926" lon="7.035966"><ele></ele><time>2019-9-4T8:31:37Z</time></trkpt>
<trkpt lat="46.595039" lon="7.035843"><ele></ele><time>2019-9-4T8:31:40Z</time></trkpt>
<trkpt lat="46.595202" lon="7.03564"><ele></ele><time>2019-9-4T8:31:43Z</time></trkpt>
<trkpt lat="46.595269" lon="7.035554"><ele></ele><time>2019-9-4T8:31:46Z</time></trkpt>
<trkpt lat="46.595392" lon="7.035369"><ele></ele><time>2019-9-4T8:31:49Z</time></trkpt>
<trkpt lat="46.595482" lon="7.035253"><ele></ele><time>2019-9-4T8:31:52Z</time></trkpt>
<trkpt lat="46.595645" lon="7.035062"><ele></ele><time>2019-9-4T8:31:55Z</time></trkpt>
<trkpt lat="46.595853" lon="7.034906"><ele></ele><time>2019-9-4T8:31:58Z</time></trkpt>
<trkpt lat="46.596008" lon="7.034754"><ele></ele><time>2019-9-4T8:32:1Z</time></trkpt>
<trkpt lat="46.596081" lon="7.034512"><ele></ele><time>2019-9-4T8:32:4Z</time></trkpt>
<trkpt lat="46.596131" lon="7.034192"><ele></ele><time>2019-9-4T8:32:7Z</time></trkpt>
<trkpt lat="46.596064" lon="7.033936"><ele></ele><time>2019-9-4T8:32:10Z</time></trkpt>
<trkpt lat="46.595997" lon="7.033673"><ele></ele><time>2019-9-4T8:32:13Z</time></trkpt>
<trkpt lat="46.595942" lon="7.033416"><ele></ele><time>2019-9-4T8:32:16Z</time></trkpt>
<trkpt lat="46.595875" lon="7.033164"><ele></ele><time>2019-9-4T8:32:19Z</time></trkpt>
<trkpt lat="46.595849" lon="7.033065"><ele></ele><time>2019-9-4T8:32:22Z</time></trkpt>
<trkpt lat="46.595829" lon="7.032958"><ele></ele><time>2019-9-4T8:32:25Z</time></trkpt>
<trkpt lat="46.595774" lon="7.032677"><ele></ele><time>2019-9-4T8:32:28Z</time></trkpt>
<trkpt lat="46.595749" lon="7.032423"><ele></ele><time>2019-9-4T8:32:31Z</time></trkpt>
<trkpt lat="46.595735" lon="7.032085"><ele></ele><time>2019-9-4T8:32:34Z</time></trkpt>
<trkpt lat="46.59572" lon="7.031761"><ele></ele><time>2019-9-4T8:32:37Z</time></trkpt>
<trkpt lat="46.595709" lon="7.031654"><ele></ele><time>2019-9-4T8:32:40Z</time></trkpt>
<trkpt lat="46.595706" lon="7.031542"><ele></ele><time>2019-9-4T8:32:43Z</time></trkpt>
<trkpt lat="46.595693" lon="7.03124"><ele></ele><time>2019-9-4T8:32:46Z</time></trkpt>
<trkpt lat="46.595659" lon="7.030998"><ele></ele><time>2019-9-4T8:32:49Z</time></trkpt>
<trkpt lat="46.59556" lon="7.030681"><ele></ele><time>2019-9-4T8:32:52Z</time></trkpt>
<trkpt lat="46.595483" lon="7.030507"><ele></ele><time>2019-9-4T8:32:55Z</time></trkpt>
<trkpt lat="46.595427" lon="7.030358"><ele></ele><time>2019-9-4T8:32:58Z</time></trkpt>
<trkpt lat="46.595344" lon="7.030197"><ele></ele><time>2019-9-4T8:33:1Z</time></trkpt>
<trkpt lat="46.595241" lon="7.029976"><ele></ele><time>2019-9-4T8:33:4Z</time></trkpt>
<trkpt lat="46.595125" lon="7.029718"><ele></ele><time>2019-9-4T8:33:7Z</time></trkpt>
<trkpt lat="46.595011" lon="7.029494"><ele></ele><time>2019-9-4T8:33:10Z</time></trkpt>
<trkpt lat="46.594919" lon="7.029272"><ele></ele><time>2019-9-4T8:33:13Z</time></trkpt>
<trkpt lat="46.594894" lon="7.028987"><ele></ele><time>2019-9-4T8:33:16Z</time></trkpt>
<trkpt lat="46.594881" lon="7.028734"><ele></ele><time>2019-9-4T8:33:19Z</time></trkpt>
<trkpt lat="46.594845" lon="7.028129"><ele></ele><time>2019-9-4T8:33:22Z</time></trkpt>
<trkpt lat="46.594811" lon="7.027874"><ele></ele><time>2019-9-4T8:33:25Z</time></trkpt>
<trkpt lat="46.594778" lon="7.027729"><ele></ele><time>2019-9-4T8:33:28Z</time></trkpt>
<trkpt lat="46.594737" lon="7.027388"><ele></ele><time>2019-9-4T8:33:31Z</time></trkpt>
<trkpt lat="46.594749" lon="7.026975"><ele></ele><time>2019-9-4T8:33:34Z</time></trkpt>
<trkpt lat="46.594808" lon="7.026683"><ele></ele><time>2019-9-4T8:33:37Z</time></trkpt>
<trkpt lat="46.594817" lon="7.026614"><ele></ele><time>2019-9-4T8:33:40Z</time></trkpt>
<trkpt lat="46.594817" lon="7.026614"><ele></ele><time>2019-9-4T8:33:43Z</time></trkpt>
<trkpt lat="46.594817" lon="7.026614"><ele></ele><time>2019-9-4T8:33:46Z</time></trkpt>
<trkpt lat="46.594709" lon="7.026341"><ele></ele><time>2019-9-4T8:33:49Z</time></trkpt>
<trkpt lat="46.594627" lon="7.026053"><ele></ele><time>2019-9-4T8:33:52Z</time></trkpt>
<trkpt lat="46.594496" lon="7.025793"><ele></ele><time>2019-9-4T8:33:55Z</time></trkpt>
<trkpt lat="46.594339" lon="7.02558"><ele></ele><time>2019-9-4T8:33:58Z</time></trkpt>
<trkpt lat="46.594178" lon="7.025385"><ele></ele><time>2019-9-4T8:34:1Z</time></trkpt>
<trkpt lat="46.594101" lon="7.025304"><ele></ele><time>2019-9-4T8:34:4Z</time></trkpt>
<trkpt lat="46.594025" lon="7.025212"><ele></ele><time>2019-9-4T8:34:7Z</time></trkpt>
<trkpt lat="46.593891" lon="7.025004"><ele></ele><time>2019-9-4T8:34:10Z</time></trkpt>
<trkpt lat="46.593768" lon="7.024788"><ele></ele><time>2019-9-4T8:34:13Z</time></trkpt>
<trkpt lat="46.593611" lon="7.024578"><ele></ele><time>2019-9-4T8:34:16Z</time></trkpt>
<trkpt lat="46.593689" lon="7.024309"><ele></ele><time>2019-9-4T8:34:19Z</time></trkpt>
<trkpt lat="46.593585" lon="7.024036"><ele></ele><time>2019-9-4T8:34:22Z</time></trkpt>
<trkpt lat="46.593533" lon="7.023784"><ele></ele><time>2019-9-4T8:34:25Z</time></trkpt>
<trkpt lat="46.593489" lon="7.023451"><ele></ele><time>2019-9-4T8:34:28Z</time></trkpt>
<trkpt lat="46.593392" lon="7.023233"><ele></ele><time>2019-9-4T8:34:31Z</time></trkpt>
<trkpt lat="46.593206" lon="7.02302"><ele></ele><time>2019-9-4T8:34:34Z</time></trkpt>
<trkpt lat="46.593353" lon="7.022712"><ele></ele><time>2019-9-4T8:34:37Z</time></trkpt>
<trkpt lat="46.593385" lon="7.022507"><ele></ele><time>2019-9-4T8:34:40Z</time></trkpt>
<trkpt lat="46.593632" lon="7.022485"><ele></ele><time>2019-9-4T8:34:43Z</time></trkpt>
<trkpt lat="46.593822" lon="7.022325"><ele></ele><time>2019-9-4T8:34:46Z</time></trkpt>
<trkpt lat="46.593968" lon="7.022178"><ele></ele><time>2019-9-4T8:34:49Z</time></trkpt>
<trkpt lat="46.594229" lon="7.022643"><ele></ele><time>2019-9-4T8:34:52Z</time></trkpt>
<trkpt lat="46.594286" lon="7.022915"><ele></ele><time>2019-9-4T8:34:55Z</time></trkpt>
<trkpt lat="46.594413" lon="7.023152"><ele></ele><time>2019-9-4T8:34:58Z</time></trkpt>
<trkpt lat="46.594717" lon="7.022888"><ele></ele><time>2019-9-4T8:35:1Z</time></trkpt>
<trkpt lat="46.594802" lon="7.022582"><ele></ele><time>2019-9-4T8:35:4Z</time></trkpt>
<trkpt lat="46.594968" lon="7.022056"><ele></ele><time>2019-9-4T8:35:7Z</time></trkpt>
<trkpt lat="46.595234" lon="7.021423"><ele></ele><time>2019-9-4T8:35:10Z</time></trkpt>
<trkpt lat="46.595349" lon="7.021035"><ele></ele><time>2019-9-4T8:35:13Z</time></trkpt>
<trkpt lat="46.595419" lon="7.020603"><ele></ele><time>2019-9-4T8:35:16Z</time></trkpt>
<trkpt lat="46.595455" lon="7.01988"><ele></ele><time>2019-9-4T8:35:19Z</time></trkpt>
<trkpt lat="46.595662" lon="7.019037"><ele></ele><time>2019-9-4T8:35:22Z</time></trkpt>
<trkpt lat="46.595889" lon="7.018895"><ele></ele><time>2019-9-4T8:35:25Z</time></trkpt>
<trkpt lat="46.596035" lon="7.01907"><ele></ele><time>2019-9-4T8:35:28Z</time></trkpt>
<trkpt lat="46.596403" lon="7.019573"><ele></ele><time>2019-9-4T8:35:31Z</time></trkpt>
<trkpt lat="46.596862" lon="7.019849"><ele></ele><time>2019-9-4T8:35:34Z</time></trkpt>
<trkpt lat="46.597126" lon="7.01985"><ele></ele><time>2019-9-4T8:35:37Z</time></trkpt>
<trkpt lat="46.597434" lon="7.019902"><ele></ele><time>2019-9-4T8:35:40Z</time></trkpt>
<trkpt lat="46.597772" lon="7.020096"><ele></ele><time>2019-9-4T8:35:43Z</time></trkpt>
<trkpt lat="46.597906" lon="7.020282"><ele></ele><time>2019-9-4T8:35:46Z</time></trkpt>
<trkpt lat="46.598021" lon="7.020404"><ele></ele><time>2019-9-4T8:35:49Z</time></trkpt>
<trkpt lat="46.598479" lon="7.020569"><ele></ele><time>2019-9-4T8:35:52Z</time></trkpt>
<trkpt lat="46.598799" lon="7.020752"><ele></ele><time>2019-9-4T8:35:55Z</time></trkpt>
<trkpt lat="46.598999" lon="7.020918"><ele></ele><time>2019-9-4T8:35:58Z</time></trkpt>
<trkpt lat="46.599196" lon="7.021013"><ele></ele><time>2019-9-4T8:36:1Z</time></trkpt>
<trkpt lat="46.599196" lon="7.021013"><ele></ele><time>2019-9-4T8:36:4Z</time></trkpt>
<trkpt lat="46.599196" lon="7.021013"><ele></ele><time>2019-9-4T8:36:7Z</time></trkpt>
<trkpt lat="46.599196" lon="7.021013"><ele></ele><time>2019-9-4T8:36:10Z</time></trkpt>
<trkpt lat="46.599135" lon="7.020814"><ele></ele><time>2019-9-4T8:36:13Z</time></trkpt>
<trkpt lat="46.599019" lon="7.020568"><ele></ele><time>2019-9-4T8:36:16Z</time></trkpt>
<trkpt lat="46.598843" lon="7.020177"><ele></ele><time>2019-9-4T8:36:19Z</time></trkpt>
<trkpt lat="46.598723" lon="7.019938"><ele></ele><time>2019-9-4T8:36:22Z</time></trkpt>
<trkpt lat="46.598636" lon="7.019765"><ele></ele><time>2019-9-4T8:36:25Z</time></trkpt>
<trkpt lat="46.598486" lon="7.019327"><ele></ele><time>2019-9-4T8:36:28Z</time></trkpt>
<trkpt lat="46.598327" lon="7.019059"><ele></ele><time>2019-9-4T8:36:31Z</time></trkpt>
<trkpt lat="46.598165" lon="7.018787"><ele></ele><time>2019-9-4T8:36:34Z</time></trkpt>
<trkpt lat="46.598079" lon="7.018475"><ele></ele><time>2019-9-4T8:36:37Z</time></trkpt>
<trkpt lat="46.598012" lon="7.018178"><ele></ele><time>2019-9-4T8:36:40Z</time></trkpt>
<trkpt lat="46.59783" lon="7.017879"><ele></ele><time>2019-9-4T8:36:43Z</time></trkpt>
<trkpt lat="46.597664" lon="7.017579"><ele></ele><time>2019-9-4T8:36:46Z</time></trkpt>
<trkpt lat="46.597569" lon="7.017247"><ele></ele><time>2019-9-4T8:36:49Z</time></trkpt>
<trkpt lat="46.597521" lon="7.016949"><ele></ele><time>2019-9-4T8:36:52Z</time></trkpt>
<trkpt lat="46.597538" lon="7.016685"><ele></ele><time>2019-9-4T8:36:55Z</time></trkpt>
<trkpt lat="46.597492" lon="7.01628"><ele></ele><time>2019-9-4T8:36:58Z</time></trkpt>
<trkpt lat="46.597386" lon="7.016014"><ele></ele><time>2019-9-4T8:37:1Z</time></trkpt>
<trkpt lat="46.597214" lon="7.015992"><ele></ele><time>2019-9-4T8:37:4Z</time></trkpt>
<trkpt lat="46.597012" lon="7.015976"><ele></ele><time>2019-9-4T8:37:7Z</time></trkpt>
<trkpt lat="46.596924" lon="7.015893"><ele></ele><time>2019-9-4T8:37:10Z</time></trkpt>
<trkpt lat="46.596844" lon="7.015823"><ele></ele><time>2019-9-4T8:37:13Z</time></trkpt>
<trkpt lat="46.596844" lon="7.015823"><ele></ele><time>2019-9-4T8:37:16Z</time></trkpt>
<trkpt lat="46.596844" lon="7.015823"><ele></ele><time>2019-9-4T8:37:19Z</time></trkpt>
<trkpt lat="46.597114" lon="7.015687"><ele></ele><time>2019-9-4T8:37:22Z</time></trkpt>
<trkpt lat="46.597319" lon="7.015647"><ele></ele><time>2019-9-4T8:37:25Z</time></trkpt>
<trkpt lat="46.597319" lon="7.015647"><ele></ele><time>2019-9-4T8:37:28Z</time></trkpt>
<trkpt lat="46.597319" lon="7.015647"><ele></ele><time>2019-9-4T8:37:31Z</time></trkpt>
<trkpt lat="46.59741" lon="7.015484"><ele></ele><time>2019-9-4T8:37:34Z</time></trkpt>
<trkpt lat="46.597523" lon="7.01545"><ele></ele><time>2019-9-4T8:37:37Z</time></trkpt>
<trkpt lat="46.597839" lon="7.015391"><ele></ele><time>2019-9-4T8:37:40Z</time></trkpt>
<trkpt lat="46.597983" lon="7.015548"><ele></ele><time>2019-9-4T8:37:43Z</time></trkpt>
<trkpt lat="46.598033" lon="7.015444"><ele></ele><time>2019-9-4T8:37:46Z</time></trkpt>
<trkpt lat="46.597951" lon="7.015208"><ele></ele><time>2019-9-4T8:37:49Z</time></trkpt>
<trkpt lat="46.597684" lon="7.014906"><ele></ele><time>2019-9-4T8:37:52Z</time></trkpt>
<trkpt lat="46.597361" lon="7.014784"><ele></ele><time>2019-9-4T8:37:55Z</time></trkpt>
<trkpt lat="46.597186" lon="7.014706"><ele></ele><time>2019-9-4T8:37:58Z</time></trkpt>
<trkpt lat="46.597429" lon="7.014583"><ele></ele><time>2019-9-4T8:38:1Z</time></trkpt>
<trkpt lat="46.597551" lon="7.014554"><ele></ele><time>2019-9-4T8:38:4Z</time></trkpt>
<trkpt lat="46.59785" lon="7.014555"><ele></ele><time>2019-9-4T8:38:7Z</time></trkpt>
<trkpt lat="46.598011" lon="7.014582"><ele></ele><time>2019-9-4T8:38:10Z</time></trkpt>
<trkpt lat="46.597519" lon="7.014118"><ele></ele><time>2019-9-4T8:38:13Z</time></trkpt>
<trkpt lat="46.597519" lon="7.014118"><ele></ele><time>2019-9-4T8:38:16Z</time></trkpt>
<trkpt lat="46.597519" lon="7.014118"><ele></ele><time>2019-9-4T8:38:19Z</time></trkpt>
<trkpt lat="46.597519" lon="7.014118"><ele></ele><time>2019-9-4T8:38:22Z</time></trkpt>
<trkpt lat="46.597298" lon="7.013913"><ele></ele><time>2019-9-4T8:38:25Z</time></trkpt>
<trkpt lat="46.597125" lon="7.013985"><ele></ele><time>2019-9-4T8:38:28Z</time></trkpt>
<trkpt lat="46.59707" lon="7.013971"><ele></ele><time>2019-9-4T8:38:31Z</time></trkpt>
<trkpt lat="46.59707" lon="7.013971"><ele></ele><time>2019-9-4T8:38:34Z</time></trkpt>
<trkpt lat="46.59707" lon="7.013971"><ele></ele><time>2019-9-4T8:38:37Z</time></trkpt>
<trkpt lat="46.596817" lon="7.013999"><ele></ele><time>2019-9-4T8:38:40Z</time></trkpt>
<trkpt lat="46.596742" lon="7.013983"><ele></ele><time>2019-9-4T8:38:43Z</time></trkpt>
<trkpt lat="46.596742" lon="7.013983"><ele></ele><time>2019-9-4T8:38:46Z</time></trkpt>
<trkpt lat="46.596742" lon="7.013983"><ele></ele><time>2019-9-4T8:38:49Z</time></trkpt>
<trkpt lat="46.595683" lon="7.013646"><ele></ele><time>2019-9-4T8:38:52Z</time></trkpt>
<trkpt lat="46.595541" lon="7.013714"><ele></ele><time>2019-9-4T8:38:55Z</time></trkpt>
<trkpt lat="46.595303" lon="7.013772"><ele></ele><time>2019-9-4T8:38:58Z</time></trkpt>
<trkpt lat="46.595019" lon="7.013769"><ele></ele><time>2019-9-4T8:39:1Z</time></trkpt>
<trkpt lat="46.594977" lon="7.013771"><ele></ele><time>2019-9-4T8:39:4Z</time></trkpt>
<trkpt lat="46.594977" lon="7.013771"><ele></ele><time>2019-9-4T8:39:7Z</time></trkpt>
<trkpt lat="46.594977" lon="7.013771"><ele></ele><time>2019-9-4T8:39:10Z</time></trkpt>
<trkpt lat="46.594565" lon="7.013796"><ele></ele><time>2019-9-4T8:39:13Z</time></trkpt>
<trkpt lat="46.594361" lon="7.013759"><ele></ele><time>2019-9-4T8:39:16Z</time></trkpt>
<trkpt lat="46.594289" lon="7.01378"><ele></ele><time>2019-9-4T8:39:19Z</time></trkpt>
<trkpt lat="46.594289" lon="7.01378"><ele></ele><time>2019-9-4T8:39:22Z</time></trkpt>
<trkpt lat="46.594289" lon="7.01378"><ele></ele><time>2019-9-4T8:39:25Z</time></trkpt>
<trkpt lat="46.593971" lon="7.014194"><ele></ele><time>2019-9-4T8:39:28Z</time></trkpt>
<trkpt lat="46.593805" lon="7.014226"><ele></ele><time>2019-9-4T8:39:31Z</time></trkpt>
<trkpt lat="46.593805" lon="7.014226"><ele></ele><time>2019-9-4T8:39:34Z</time></trkpt>
<trkpt lat="46.593805" lon="7.014226"><ele></ele><time>2019-9-4T8:39:37Z</time></trkpt>
<trkpt lat="46.593536" lon="7.014231"><ele></ele><time>2019-9-4T8:39:40Z</time></trkpt>
<trkpt lat="46.593771" lon="7.014418"><ele></ele><time>2019-9-4T8:39:43Z</time></trkpt>
<trkpt lat="46.593852" lon="7.014401"><ele></ele><time>2019-9-4T8:39:46Z</time></trkpt>
<trkpt lat="46.594042" lon="7.014185"><ele></ele><time>2019-9-4T8:39:49Z</time></trkpt>
<trkpt lat="46.59424" lon="7.014189"><ele></ele><time>2019-9-4T8:39:52Z</time></trkpt>
<trkpt lat="46.594288" lon="7.014202"><ele></ele><time>2019-9-4T8:39:55Z</time></trkpt>
<trkpt lat="46.594288" lon="7.014202"><ele></ele><time>2019-9-4T8:39:58Z</time></trkpt>
<trkpt lat="46.594288" lon="7.014202"><ele></ele><time>2019-9-4T8:40:1Z</time></trkpt>
<trkpt lat="46.594673" lon="7.014343"><ele></ele><time>2019-9-4T8:40:4Z</time></trkpt>
<trkpt lat="46.594673" lon="7.014343"><ele></ele><time>2019-9-4T8:40:7Z</time></trkpt>
<trkpt lat="46.594673" lon="7.014343"><ele></ele><time>2019-9-4T8:40:10Z</time></trkpt>
<trkpt lat="46.594673" lon="7.014343"><ele></ele><time>2019-9-4T8:40:13Z</time></trkpt>
<trkpt lat="46.594807" lon="7.014015"><ele></ele><time>2019-9-4T8:40:16Z</time></trkpt>
<trkpt lat="46.594865" lon="7.013986"><ele></ele><time>2019-9-4T8:40:19Z</time></trkpt>
<trkpt lat="46.594865" lon="7.013986"><ele></ele><time>2019-9-4T8:40:22Z</time></trkpt>
<trkpt lat="46.594865" lon="7.013986"><ele></ele><time>2019-9-4T8:40:25Z</time></trkpt>
<trkpt lat="46.594906" lon="7.013757"><ele></ele><time>2019-9-4T8:40:28Z</time></trkpt>
<trkpt lat="46.594975" lon="7.013444"><ele></ele><time>2019-9-4T8:40:31Z</time></trkpt>
<trkpt lat="46.595002" lon="7.013254"><ele></ele><time>2019-9-4T8:40:34Z</time></trkpt>
<trkpt lat="46.595206" lon="7.013156"><ele></ele><time>2019-9-4T8:40:37Z</time></trkpt>
<trkpt lat="46.595206" lon="7.013156"><ele></ele><time>2019-9-4T8:40:40Z</time></trkpt>
<trkpt lat="46.595206" lon="7.013156"><ele></ele><time>2019-9-4T8:40:43Z</time></trkpt>
<trkpt lat="46.59532" lon="7.013236"><ele></ele><time>2019-9-4T8:40:46Z</time></trkpt>
<trkpt lat="46.595428" lon="7.01348"><ele></ele><time>2019-9-4T8:40:49Z</time></trkpt>
<trkpt lat="46.595524" lon="7.013639"><ele></ele><time>2019-9-4T8:40:52Z</time></trkpt>
<trkpt lat="46.595695" lon="7.013772"><ele></ele><time>2019-9-4T8:40:55Z</time></trkpt>
<trkpt lat="46.595883" lon="7.013892"><ele></ele><time>2019-9-4T8:40:58Z</time></trkpt>
<trkpt lat="46.596095" lon="7.013782"><ele></ele><time>2019-9-4T8:41:1Z</time></trkpt>
<trkpt lat="46.596177" lon="7.013738"><ele></ele><time>2019-9-4T8:41:4Z</time></trkpt>
<trkpt lat="46.596177" lon="7.013738"><ele></ele><time>2019-9-4T8:41:7Z</time></trkpt>
<trkpt lat="46.596177" lon="7.013738"><ele></ele><time>2019-9-4T8:41:10Z</time></trkpt>
<trkpt lat="46.596586" lon="7.013716"><ele></ele><time>2019-9-4T8:41:13Z</time></trkpt>
<trkpt lat="46.59698" lon="7.013818"><ele></ele><time>2019-9-4T8:41:16Z</time></trkpt>
<trkpt lat="46.597377" lon="7.0139"><ele></ele><time>2019-9-4T8:41:19Z</time></trkpt>
<trkpt lat="46.597721" lon="7.013907"><ele></ele><time>2019-9-4T8:41:22Z</time></trkpt>
<trkpt lat="46.597867" lon="7.013902"><ele></ele><time>2019-9-4T8:41:25Z</time></trkpt>
<trkpt lat="46.597867" lon="7.013902"><ele></ele><time>2019-9-4T8:41:28Z</time></trkpt>
<trkpt lat="46.597867" lon="7.013902"><ele></ele><time>2019-9-4T8:41:31Z</time></trkpt>
<trkpt lat="46.597998" lon="7.013887"><ele></ele><time>2019-9-4T8:41:34Z</time></trkpt>
<trkpt lat="46.598276" lon="7.014125"><ele></ele><time>2019-9-4T8:41:37Z</time></trkpt>
<trkpt lat="46.598546" lon="7.01426"><ele></ele><time>2019-9-4T8:41:40Z</time></trkpt>
<trkpt lat="46.598834" lon="7.014402"><ele></ele><time>2019-9-4T8:41:43Z</time></trkpt>
<trkpt lat="46.599203" lon="7.014669"><ele></ele><time>2019-9-4T8:41:46Z</time></trkpt>
<trkpt lat="46.599521" lon="7.014966"><ele></ele><time>2019-9-4T8:41:49Z</time></trkpt>
<trkpt lat="46.599762" lon="7.015336"><ele></ele><time>2019-9-4T8:41:52Z</time></trkpt>
<trkpt lat="46.59978" lon="7.01576"><ele></ele><time>2019-9-4T8:41:55Z</time></trkpt>
<trkpt lat="46.599791" lon="7.016215"><ele></ele><time>2019-9-4T8:41:58Z</time></trkpt>
<trkpt lat="46.599784" lon="7.016397"><ele></ele><time>2019-9-4T8:42:1Z</time></trkpt>
<trkpt lat="46.599844" lon="7.016679"><ele></ele><time>2019-9-4T8:42:4Z</time></trkpt>
<trkpt lat="46.600009" lon="7.016892"><ele></ele><time>2019-9-4T8:42:7Z</time></trkpt>
<trkpt lat="46.6002" lon="7.017163"><ele></ele><time>2019-9-4T8:42:10Z</time></trkpt>
<trkpt lat="46.600346" lon="7.017514"><ele></ele><time>2019-9-4T8:42:13Z</time></trkpt>
<trkpt lat="46.600444" lon="7.017947"><ele></ele><time>2019-9-4T8:42:16Z</time></trkpt>
<trkpt lat="46.600568" lon="7.018481"><ele></ele><time>2019-9-4T8:42:19Z</time></trkpt>
<trkpt lat="46.600721" lon="7.01899"><ele></ele><time>2019-9-4T8:42:22Z</time></trkpt>
<trkpt lat="46.600961" lon="7.019588"><ele></ele><time>2019-9-4T8:42:25Z</time></trkpt>
<trkpt lat="46.601338" lon="7.020004"><ele></ele><time>2019-9-4T8:42:28Z</time></trkpt>
<trkpt lat="46.601713" lon="7.020337"><ele></ele><time>2019-9-4T8:42:31Z</time></trkpt>
<trkpt lat="46.601904" lon="7.020668"><ele></ele><time>2019-9-4T8:42:34Z</time></trkpt>
<trkpt lat="46.601986" lon="7.020986"><ele></ele><time>2019-9-4T8:42:37Z</time></trkpt>
<trkpt lat="46.602071" lon="7.021299"><ele></ele><time>2019-9-4T8:42:40Z</time></trkpt>
<trkpt lat="46.602113" lon="7.021523"><ele></ele><time>2019-9-4T8:42:43Z</time></trkpt>
<trkpt lat="46.602196" lon="7.021867"><ele></ele><time>2019-9-4T8:42:46Z</time></trkpt>
<trkpt lat="46.602295" lon="7.022334"><ele></ele><time>2019-9-4T8:42:49Z</time></trkpt>
<trkpt lat="46.602438" lon="7.022835"><ele></ele><time>2019-9-4T8:42:52Z</time></trkpt>
<trkpt lat="46.602589" lon="7.023186"><ele></ele><time>2019-9-4T8:42:55Z</time></trkpt>
<trkpt lat="46.602867" lon="7.023706"><ele></ele><time>2019-9-4T8:42:58Z</time></trkpt>
<trkpt lat="46.603221" lon="7.02424"><ele></ele><time>2019-9-4T8:43:1Z</time></trkpt>
<trkpt lat="46.603569" lon="7.024838"><ele></ele><time>2019-9-4T8:43:4Z</time></trkpt>
<trkpt lat="46.604104" lon="7.025677"><ele></ele><time>2019-9-4T8:43:7Z</time></trkpt>
<trkpt lat="46.604717" lon="7.026552"><ele></ele><time>2019-9-4T8:43:10Z</time></trkpt>
<trkpt lat="46.605136" lon="7.027383"><ele></ele><time>2019-9-4T8:43:13Z</time></trkpt>
<trkpt lat="46.605485" lon="7.02815"><ele></ele><time>2019-9-4T8:43:16Z</time></trkpt>
<trkpt lat="46.605888" lon="7.028878"><ele></ele><time>2019-9-4T8:43:19Z</time></trkpt>
<trkpt lat="46.606199" lon="7.029403"><ele></ele><time>2019-9-4T8:43:22Z</time></trkpt>
<trkpt lat="46.60649" lon="7.029918"><ele></ele><time>2019-9-4T8:43:25Z</time></trkpt>
<trkpt lat="46.606805" lon="7.030391"><ele></ele><time>2019-9-4T8:43:28Z</time></trkpt>
<trkpt lat="46.607032" lon="7.030853"><ele></ele><time>2019-9-4T8:43:31Z</time></trkpt>
<trkpt lat="46.607585" lon="7.03138"><ele></ele><time>2019-9-4T8:43:34Z</time></trkpt>
<trkpt lat="46.608003" lon="7.031847"><ele></ele><time>2019-9-4T8:43:37Z</time></trkpt>
<trkpt lat="46.608416" lon="7.032288"><ele></ele><time>2019-9-4T8:43:40Z</time></trkpt>
<trkpt lat="46.608756" lon="7.032613"><ele></ele><time>2019-9-4T8:43:43Z</time></trkpt>
<trkpt lat="46.608717" lon="7.032585"><ele></ele><time>2019-9-4T8:43:46Z</time></trkpt>
<trkpt lat="46.608659" lon="7.032589"><ele></ele><time>2019-9-4T8:43:49Z</time></trkpt>
<trkpt lat="46.608659" lon="7.032589"><ele></ele><time>2019-9-4T8:43:52Z</time></trkpt>
<trkpt lat="46.608659" lon="7.032589"><ele></ele><time>2019-9-4T8:43:55Z</time></trkpt>
<trkpt lat="46.60887" lon="7.032741"><ele></ele><time>2019-9-4T8:43:58Z</time></trkpt>
<trkpt lat="46.609099" lon="7.032951"><ele></ele><time>2019-9-4T8:44:1Z</time></trkpt>
<trkpt lat="46.609381" lon="7.033199"><ele></ele><time>2019-9-4T8:44:4Z</time></trkpt>
<trkpt lat="46.609533" lon="7.033337"><ele></ele><time>2019-9-4T8:44:7Z</time></trkpt>
<trkpt lat="46.609681" lon="7.0335"><ele></ele><time>2019-9-4T8:44:10Z</time></trkpt>
<trkpt lat="46.609826" lon="7.033673"><ele></ele><time>2019-9-4T8:44:13Z</time></trkpt>
<trkpt lat="46.610063" lon="7.033987"><ele></ele><time>2019-9-4T8:44:16Z</time></trkpt>
<trkpt lat="46.61035" lon="7.03436"><ele></ele><time>2019-9-4T8:44:19Z</time></trkpt>
<trkpt lat="46.610651" lon="7.034747"><ele></ele><time>2019-9-4T8:44:22Z</time></trkpt>
<trkpt lat="46.610962" lon="7.035185"><ele></ele><time>2019-9-4T8:44:25Z</time></trkpt>
<trkpt lat="46.611287" lon="7.03569"><ele></ele><time>2019-9-4T8:44:28Z</time></trkpt>
<trkpt lat="46.611574" lon="7.036164"><ele></ele><time>2019-9-4T8:44:31Z</time></trkpt>
<trkpt lat="46.611878" lon="7.036668"><ele></ele><time>2019-9-4T8:44:34Z</time></trkpt>
<trkpt lat="46.612171" lon="7.03737"><ele></ele><time>2019-9-4T8:44:37Z</time></trkpt>
<trkpt lat="46.612373" lon="7.037982"><ele></ele><time>2019-9-4T8:44:40Z</time></trkpt>
<trkpt lat="46.612577" lon="7.038686"><ele></ele><time>2019-9-4T8:44:43Z</time></trkpt>
<trkpt lat="46.612807" lon="7.039307"><ele></ele><time>2019-9-4T8:44:46Z</time></trkpt>
<trkpt lat="46.613035" lon="7.039867"><ele></ele><time>2019-9-4T8:44:49Z</time></trkpt>
<trkpt lat="46.613253" lon="7.040403"><ele></ele><time>2019-9-4T8:44:52Z</time></trkpt>
<trkpt lat="46.613285" lon="7.040858"><ele></ele><time>2019-9-4T8:44:55Z</time></trkpt>
<trkpt lat="46.613361" lon="7.041394"><ele></ele><time>2019-9-4T8:44:58Z</time></trkpt>
<trkpt lat="46.613495" lon="7.042026"><ele></ele><time>2019-9-4T8:45:1Z</time></trkpt>
<trkpt lat="46.613505" lon="7.042558"><ele></ele><time>2019-9-4T8:45:4Z</time></trkpt>
<trkpt lat="46.613509" lon="7.042876"><ele></ele><time>2019-9-4T8:45:7Z</time></trkpt>
<trkpt lat="46.613601" lon="7.043533"><ele></ele><time>2019-9-4T8:45:10Z</time></trkpt>
<trkpt lat="46.613687" lon="7.044046"><ele></ele><time>2019-9-4T8:45:13Z</time></trkpt>
<trkpt lat="46.613759" lon="7.044674"><ele></ele><time>2019-9-4T8:45:16Z</time></trkpt>
<trkpt lat="46.613819" lon="7.045005"><ele></ele><time>2019-9-4T8:45:19Z</time></trkpt>
<trkpt lat="46.613853" lon="7.045348"><ele></ele><time>2019-9-4T8:45:22Z</time></trkpt>
<trkpt lat="46.613932" lon="7.045841"><ele></ele><time>2019-9-4T8:45:25Z</time></trkpt>
<trkpt lat="46.614028" lon="7.046418"><ele></ele><time>2019-9-4T8:45:28Z</time></trkpt>
<trkpt lat="46.614143" lon="7.046981"><ele></ele><time>2019-9-4T8:45:31Z</time></trkpt>
<trkpt lat="46.614191" lon="7.047352"><ele></ele><time>2019-9-4T8:45:34Z</time></trkpt>
<trkpt lat="46.6143" lon="7.047793"><ele></ele><time>2019-9-4T8:45:37Z</time></trkpt>
<trkpt lat="46.61441" lon="7.048355"><ele></ele><time>2019-9-4T8:45:40Z</time></trkpt>
<trkpt lat="46.614542" lon="7.048897"><ele></ele><time>2019-9-4T8:45:43Z</time></trkpt>
<trkpt lat="46.614706" lon="7.049586"><ele></ele><time>2019-9-4T8:45:46Z</time></trkpt>
<trkpt lat="46.614811" lon="7.050121"><ele></ele><time>2019-9-4T8:45:49Z</time></trkpt>
<trkpt lat="46.614942" lon="7.050779"><ele></ele><time>2019-9-4T8:45:52Z</time></trkpt>
<trkpt lat="46.615052" lon="7.051319"><ele></ele><time>2019-9-4T8:45:55Z</time></trkpt>
<trkpt lat="46.615271" lon="7.052267"><ele></ele><time>2019-9-4T8:45:58Z</time></trkpt>
<trkpt lat="46.615348" lon="7.053105"><ele></ele><time>2019-9-4T8:46:1Z</time></trkpt>
<trkpt lat="46.615316" lon="7.053484"><ele></ele><time>2019-9-4T8:46:4Z</time></trkpt>
<trkpt lat="46.615338" lon="7.054343"><ele></ele><time>2019-9-4T8:46:7Z</time></trkpt>
<trkpt lat="46.615356" lon="7.055233"><ele></ele><time>2019-9-4T8:46:10Z</time></trkpt>
<trkpt lat="46.615268" lon="7.056057"><ele></ele><time>2019-9-4T8:46:13Z</time></trkpt>
<trkpt lat="46.615213" lon="7.056795"><ele></ele><time>2019-9-4T8:46:16Z</time></trkpt>
<trkpt lat="46.615109" lon="7.057305"><ele></ele><time>2019-9-4T8:46:19Z</time></trkpt>
<trkpt lat="46.614894" lon="7.057754"><ele></ele><time>2019-9-4T8:46:22Z</time></trkpt>
<trkpt lat="46.61469" lon="7.058192"><ele></ele><time>2019-9-4T8:46:25Z</time></trkpt>
<trkpt lat="46.614585" lon="7.058688"><ele></ele><time>2019-9-4T8:46:28Z</time></trkpt>
<trkpt lat="46.614885" lon="7.058924"><ele></ele><time>2019-9-4T8:46:31Z</time></trkpt>
<trkpt lat="46.615063" lon="7.058955"><ele></ele><time>2019-9-4T8:46:34Z</time></trkpt>
<trkpt lat="46.615437" lon="7.058963"><ele></ele><time>2019-9-4T8:46:37Z</time></trkpt>
<trkpt lat="46.615843" lon="7.059061"><ele></ele><time>2019-9-4T8:46:40Z</time></trkpt>
<trkpt lat="46.61616" lon="7.059243"><ele></ele><time>2019-9-4T8:46:43Z</time></trkpt>
<trkpt lat="46.616229" lon="7.059728"><ele></ele><time>2019-9-4T8:46:46Z</time></trkpt>
<trkpt lat="46.616272" lon="7.060271"><ele></ele><time>2019-9-4T8:46:49Z</time></trkpt>
<trkpt lat="46.616228" lon="7.060948"><ele></ele><time>2019-9-4T8:46:52Z</time></trkpt>
<trkpt lat="46.6163" lon="7.061671"><ele></ele><time>2019-9-4T8:46:55Z</time></trkpt>
<trkpt lat="46.61631" lon="7.062444"><ele></ele><time>2019-9-4T8:46:58Z</time></trkpt>
<trkpt lat="46.616171" lon="7.063249"><ele></ele><time>2019-9-4T8:47:1Z</time></trkpt>
<trkpt lat="46.615917" lon="7.063973"><ele></ele><time>2019-9-4T8:47:4Z</time></trkpt>
<trkpt lat="46.615633" lon="7.064723"><ele></ele><time>2019-9-4T8:47:7Z</time></trkpt>
<trkpt lat="46.615402" lon="7.065416"><ele></ele><time>2019-9-4T8:47:10Z</time></trkpt>
<trkpt lat="46.61519" lon="7.066099"><ele></ele><time>2019-9-4T8:47:13Z</time></trkpt>
<trkpt lat="46.614953" lon="7.066677"><ele></ele><time>2019-9-4T8:47:16Z</time></trkpt>
<trkpt lat="46.614774" lon="7.067063"><ele></ele><time>2019-9-4T8:47:19Z</time></trkpt>
<trkpt lat="46.61469" lon="7.067315"><ele></ele><time>2019-9-4T8:47:22Z</time></trkpt>
<trkpt lat="46.61469" lon="7.067315"><ele></ele><time>2019-9-4T8:47:25Z</time></trkpt>
<trkpt lat="46.61469" lon="7.067315"><ele></ele><time>2019-9-4T8:47:28Z</time></trkpt>
<trkpt lat="46.61469" lon="7.067315"><ele></ele><time>2019-9-4T8:47:31Z</time></trkpt>
<trkpt lat="46.614636" lon="7.067634"><ele></ele><time>2019-9-4T8:47:34Z</time></trkpt>
<trkpt lat="46.61475" lon="7.067812"><ele></ele><time>2019-9-4T8:47:37Z</time></trkpt>
<trkpt lat="46.614895" lon="7.068183"><ele></ele><time>2019-9-4T8:47:40Z</time></trkpt>
<trkpt lat="46.614901" lon="7.068413"><ele></ele><time>2019-9-4T8:47:43Z</time></trkpt>
<trkpt lat="46.614858" lon="7.068704"><ele></ele><time>2019-9-4T8:47:46Z</time></trkpt>
<trkpt lat="46.614938" lon="7.069023"><ele></ele><time>2019-9-4T8:47:49Z</time></trkpt>
<trkpt lat="46.615098" lon="7.069311"><ele></ele><time>2019-9-4T8:47:52Z</time></trkpt>
<trkpt lat="46.615197" lon="7.069594"><ele></ele><time>2019-9-4T8:47:55Z</time></trkpt>
<trkpt lat="46.615435" lon="7.069741"><ele></ele><time>2019-9-4T8:47:58Z</time></trkpt>
<trkpt lat="46.615536" lon="7.069869"><ele></ele><time>2019-9-4T8:48:1Z</time></trkpt>
<trkpt lat="46.615833" lon="7.070042"><ele></ele><time>2019-9-4T8:48:4Z</time></trkpt>
<trkpt lat="46.616055" lon="7.07016"><ele></ele><time>2019-9-4T8:48:7Z</time></trkpt>
<trkpt lat="46.616178" lon="7.070272"><ele></ele><time>2019-9-4T8:48:10Z</time></trkpt>
<trkpt lat="46.616265" lon="7.070663"><ele></ele><time>2019-9-4T8:48:13Z</time></trkpt>
<trkpt lat="46.616343" lon="7.071295"><ele></ele><time>2019-9-4T8:48:16Z</time></trkpt>
<trkpt lat="46.616427" lon="7.071603"><ele></ele><time>2019-9-4T8:48:19Z</time></trkpt>
<trkpt lat="46.616507" lon="7.071895"><ele></ele><time>2019-9-4T8:48:22Z</time></trkpt>
<trkpt lat="46.616356" lon="7.072232"><ele></ele><time>2019-9-4T8:48:25Z</time></trkpt>
<trkpt lat="46.616288" lon="7.072474"><ele></ele><time>2019-9-4T8:48:28Z</time></trkpt>
<trkpt lat="46.616349" lon="7.073049"><ele></ele><time>2019-9-4T8:48:31Z</time></trkpt>
<trkpt lat="46.616301" lon="7.073249"><ele></ele><time>2019-9-4T8:48:34Z</time></trkpt>
<trkpt lat="46.616274" lon="7.0736"><ele></ele><time>2019-9-4T8:48:37Z</time></trkpt>
<trkpt lat="46.616184" lon="7.073996"><ele></ele><time>2019-9-4T8:48:40Z</time></trkpt>
<trkpt lat="46.616074" lon="7.074337"><ele></ele><time>2019-9-4T8:48:43Z</time></trkpt>
<trkpt lat="46.615924" lon="7.074784"><ele></ele><time>2019-9-4T8:48:46Z</time></trkpt>
<trkpt lat="46.615826" lon="7.075079"><ele></ele><time>2019-9-4T8:48:49Z</time></trkpt>
<trkpt lat="46.615777" lon="7.075282"><ele></ele><time>2019-9-4T8:48:52Z</time></trkpt>
<trkpt lat="46.615705" lon="7.075663"><ele></ele><time>2019-9-4T8:48:55Z</time></trkpt>
<trkpt lat="46.615576" lon="7.076185"><ele></ele><time>2019-9-4T8:48:58Z</time></trkpt>
<trkpt lat="46.615338" lon="7.076686"><ele></ele><time>2019-9-4T8:49:1Z</time></trkpt>
<trkpt lat="46.615283" lon="7.076956"><ele></ele><time>2019-9-4T8:49:4Z</time></trkpt>
<trkpt lat="46.615283" lon="7.076956"><ele></ele><time>2019-9-4T8:49:7Z</time></trkpt>
<trkpt lat="46.615283" lon="7.076956"><ele></ele><time>2019-9-4T8:49:10Z</time></trkpt>
<trkpt lat="46.615283" lon="7.076956"><ele></ele><time>2019-9-4T8:49:13Z</time></trkpt>
<trkpt lat="46.615164" lon="7.076903"><ele></ele><time>2019-9-4T8:49:16Z</time></trkpt>
<trkpt lat="46.614826" lon="7.076729"><ele></ele><time>2019-9-4T8:49:19Z</time></trkpt>
<trkpt lat="46.614826" lon="7.076729"><ele></ele><time>2019-9-4T8:49:22Z</time></trkpt>
<trkpt lat="46.614826" lon="7.076729"><ele></ele><time>2019-9-4T8:49:25Z</time></trkpt>
<trkpt lat="46.614488" lon="7.076527"><ele></ele><time>2019-9-4T8:49:28Z</time></trkpt>
<trkpt lat="46.614422" lon="7.076405"><ele></ele><time>2019-9-4T8:49:31Z</time></trkpt>
<trkpt lat="46.614422" lon="7.076405"><ele></ele><time>2019-9-4T8:49:34Z</time></trkpt>
<trkpt lat="46.614422" lon="7.076405"><ele></ele><time>2019-9-4T8:49:37Z</time></trkpt>
<trkpt lat="46.614422" lon="7.076405"><ele></ele><time>2019-9-4T8:49:40Z</time></trkpt>
<trkpt lat="46.614164" lon="7.076103"><ele></ele><time>2019-9-4T8:49:43Z</time></trkpt>
<trkpt lat="46.614135" lon="7.07607"><ele></ele><time>2019-9-4T8:49:46Z</time></trkpt>
<trkpt lat="46.614135" lon="7.07607"><ele></ele><time>2019-9-4T8:49:49Z</time></trkpt>
<trkpt lat="46.614135" lon="7.07607"><ele></ele><time>2019-9-4T8:49:52Z</time></trkpt>
<trkpt lat="46.614004" lon="7.075868"><ele></ele><time>2019-9-4T8:49:55Z</time></trkpt>
<trkpt lat="46.613738" lon="7.075667"><ele></ele><time>2019-9-4T8:49:58Z</time></trkpt>
<trkpt lat="46.613417" lon="7.075534"><ele></ele><time>2019-9-4T8:50:1Z</time></trkpt>
<trkpt lat="46.613378" lon="7.075526"><ele></ele><time>2019-9-4T8:50:4Z</time></trkpt>
<trkpt lat="46.613378" lon="7.075526"><ele></ele><time>2019-9-4T8:50:7Z</time></trkpt>
<trkpt lat="46.613378" lon="7.075526"><ele></ele><time>2019-9-4T8:50:10Z</time></trkpt>
<trkpt lat="46.61314" lon="7.075196"><ele></ele><time>2019-9-4T8:50:13Z</time></trkpt>
<trkpt lat="46.613185" lon="7.075053"><ele></ele><time>2019-9-4T8:50:16Z</time></trkpt>
<trkpt lat="46.613185" lon="7.075053"><ele></ele><time>2019-9-4T8:50:19Z</time></trkpt>
<trkpt lat="46.613185" lon="7.075053"><ele></ele><time>2019-9-4T8:50:22Z</time></trkpt>
<trkpt lat="46.613253" lon="7.074714"><ele></ele><time>2019-9-4T8:50:25Z</time></trkpt>
<trkpt lat="46.613413" lon="7.07451"><ele></ele><time>2019-9-4T8:50:28Z</time></trkpt>
<trkpt lat="46.613546" lon="7.074348"><ele></ele><time>2019-9-4T8:50:31Z</time></trkpt>
<trkpt lat="46.613546" lon="7.074348"><ele></ele><time>2019-9-4T8:50:34Z</time></trkpt>
<trkpt lat="46.613546" lon="7.074348"><ele></ele><time>2019-9-4T8:50:37Z</time></trkpt>
<trkpt lat="46.613546" lon="7.074348"><ele></ele><time>2019-9-4T8:50:40Z</time></trkpt>
<trkpt lat="46.613672" lon="7.073765"><ele></ele><time>2019-9-4T8:50:43Z</time></trkpt>
<trkpt lat="46.613612" lon="7.073653"><ele></ele><time>2019-9-4T8:50:46Z</time></trkpt>
<trkpt lat="46.613546" lon="7.074572"><ele></ele><time>2019-9-4T8:50:49Z</time></trkpt>
<trkpt lat="46.613671" lon="7.074886"><ele></ele><time>2019-9-4T8:50:52Z</time></trkpt>
<trkpt lat="46.613628" lon="7.075324"><ele></ele><time>2019-9-4T8:50:55Z</time></trkpt>
<trkpt lat="46.613233" lon="7.076124"><ele></ele><time>2019-9-4T8:50:58Z</time></trkpt>
<trkpt lat="46.61285" lon="7.077141"><ele></ele><time>2019-9-4T8:51:1Z</time></trkpt>
<trkpt lat="46.612281" lon="7.078286"><ele></ele><time>2019-9-4T8:51:4Z</time></trkpt>
<trkpt lat="46.611852" lon="7.078932"><ele></ele><time>2019-9-4T8:51:7Z</time></trkpt>
<trkpt lat="46.611816" lon="7.079403"><ele></ele><time>2019-9-4T8:51:10Z</time></trkpt>
<trkpt lat="46.611859" lon="7.07976"><ele></ele><time>2019-9-4T8:51:13Z</time></trkpt>
<trkpt lat="46.612008" lon="7.080198"><ele></ele><time>2019-9-4T8:51:16Z</time></trkpt>
<trkpt lat="46.612132" lon="7.080378"><ele></ele><time>2019-9-4T8:51:19Z</time></trkpt>
<trkpt lat="46.612354" lon="7.080543"><ele></ele><time>2019-9-4T8:51:22Z</time></trkpt>
<trkpt lat="46.612503" lon="7.080809"><ele></ele><time>2019-9-4T8:51:25Z</time></trkpt>
<trkpt lat="46.612742" lon="7.081232"><ele></ele><time>2019-9-4T8:51:28Z</time></trkpt>
<trkpt lat="46.612826" lon="7.081574"><ele></ele><time>2019-9-4T8:51:31Z</time></trkpt>
<trkpt lat="46.612833" lon="7.081785"><ele></ele><time>2019-9-4T8:51:34Z</time></trkpt>
<trkpt lat="46.612833" lon="7.081785"><ele></ele><time>2019-9-4T8:51:37Z</time></trkpt>
<trkpt lat="46.612833" lon="7.081785"><ele></ele><time>2019-9-4T8:51:40Z</time></trkpt>
<trkpt lat="46.612619" lon="7.082191"><ele></ele><time>2019-9-4T8:51:43Z</time></trkpt>
<trkpt lat="46.612513" lon="7.082336"><ele></ele><time>2019-9-4T8:51:46Z</time></trkpt>
<trkpt lat="46.612455" lon="7.082386"><ele></ele><time>2019-9-4T8:51:49Z</time></trkpt>
<trkpt lat="46.612455" lon="7.082386"><ele></ele><time>2019-9-4T8:51:52Z</time></trkpt>
<trkpt lat="46.612455" lon="7.082386"><ele></ele><time>2019-9-4T8:51:55Z</time></trkpt>
<trkpt lat="46.612296" lon="7.08256"><ele></ele><time>2019-9-4T8:51:58Z</time></trkpt>
<trkpt lat="46.612247" lon="7.082889"><ele></ele><time>2019-9-4T8:52:1Z</time></trkpt>
<trkpt lat="46.612224" lon="7.083258"><ele></ele><time>2019-9-4T8:52:4Z</time></trkpt>
<trkpt lat="46.612131" lon="7.083385"><ele></ele><time>2019-9-4T8:52:7Z</time></trkpt>
<trkpt lat="46.612131" lon="7.083385"><ele></ele><time>2019-9-4T8:52:10Z</time></trkpt>
<trkpt lat="46.612131" lon="7.083385"><ele></ele><time>2019-9-4T8:52:13Z</time></trkpt>
<trkpt lat="46.61218" lon="7.083667"><ele></ele><time>2019-9-4T8:52:16Z</time></trkpt>
<trkpt lat="46.612184" lon="7.083693"><ele></ele><time>2019-9-4T8:52:19Z</time></trkpt>
<trkpt lat="46.612184" lon="7.083693"><ele></ele><time>2019-9-4T8:52:22Z</time></trkpt>
<trkpt lat="46.612184" lon="7.083693"><ele></ele><time>2019-9-4T8:52:25Z</time></trkpt>
<trkpt lat="46.612121" lon="7.083911"><ele></ele><time>2019-9-4T8:52:28Z</time></trkpt>
<trkpt lat="46.612121" lon="7.083911"><ele></ele><time>2019-9-4T8:52:31Z</time></trkpt>
<trkpt lat="46.612121" lon="7.083911"><ele></ele><time>2019-9-4T8:52:34Z</time></trkpt>
<trkpt lat="46.612121" lon="7.083911"><ele></ele><time>2019-9-4T8:52:37Z</time></trkpt>
<trkpt lat="46.612025" lon="7.084076"><ele></ele><time>2019-9-4T8:52:40Z</time></trkpt>
<trkpt lat="46.612029" lon="7.084164"><ele></ele><time>2019-9-4T8:52:43Z</time></trkpt>
<trkpt lat="46.612029" lon="7.084164"><ele></ele><time>2019-9-4T8:52:46Z</time></trkpt>
<trkpt lat="46.612029" lon="7.084164"><ele></ele><time>2019-9-4T8:52:49Z</time></trkpt>
<trkpt lat="46.611945" lon="7.084164"><ele></ele><time>2019-9-4T8:52:52Z</time></trkpt>
<trkpt lat="46.611558" lon="7.084143"><ele></ele><time>2019-9-4T8:52:55Z</time></trkpt>
<trkpt lat="46.610994" lon="7.084097"><ele></ele><time>2019-9-4T8:52:58Z</time></trkpt>
<trkpt lat="46.610612" lon="7.084192"><ele></ele><time>2019-9-4T8:53:1Z</time></trkpt>
<trkpt lat="46.610408" lon="7.084263"><ele></ele><time>2019-9-4T8:53:4Z</time></trkpt>
<trkpt lat="46.610345" lon="7.084578"><ele></ele><time>2019-9-4T8:53:7Z</time></trkpt>
<trkpt lat="46.610181" lon="7.084749"><ele></ele><time>2019-9-4T8:53:10Z</time></trkpt>
<trkpt lat="46.609271" lon="7.084728"><ele></ele><time>2019-9-4T8:53:13Z</time></trkpt>
<trkpt lat="46.608631" lon="7.084713"><ele></ele><time>2019-9-4T8:53:16Z</time></trkpt>
<trkpt lat="46.608314" lon="7.084868"><ele></ele><time>2019-9-4T8:53:19Z</time></trkpt>
<trkpt lat="46.608267" lon="7.085199"><ele></ele><time>2019-9-4T8:53:22Z</time></trkpt>
<trkpt lat="46.608335" lon="7.085494"><ele></ele><time>2019-9-4T8:53:25Z</time></trkpt>
<trkpt lat="46.608378" lon="7.085726"><ele></ele><time>2019-9-4T8:53:28Z</time></trkpt>
<trkpt lat="46.608487" lon="7.086149"><ele></ele><time>2019-9-4T8:53:31Z</time></trkpt>
<trkpt lat="46.608721" lon="7.086621"><ele></ele><time>2019-9-4T8:53:34Z</time></trkpt>
<trkpt lat="46.608915" lon="7.086866"><ele></ele><time>2019-9-4T8:53:37Z</time></trkpt>
<trkpt lat="46.60891" lon="7.087075"><ele></ele><time>2019-9-4T8:53:40Z</time></trkpt>
<trkpt lat="46.608693" lon="7.087392"><ele></ele><time>2019-9-4T8:53:43Z</time></trkpt>
<trkpt lat="46.608336" lon="7.087608"><ele></ele><time>2019-9-4T8:53:46Z</time></trkpt>
<trkpt lat="46.607889" lon="7.087675"><ele></ele><time>2019-9-4T8:53:49Z</time></trkpt>
<trkpt lat="46.607249" lon="7.088002"><ele></ele><time>2019-9-4T8:53:52Z</time></trkpt>
<trkpt lat="46.606685" lon="7.088721"><ele></ele><time>2019-9-4T8:53:55Z</time></trkpt>
<trkpt lat="46.606314" lon="7.089314"><ele></ele><time>2019-9-4T8:53:58Z</time></trkpt>
<trkpt lat="46.606001" lon="7.090009"><ele></ele><time>2019-9-4T8:54:1Z</time></trkpt>
<trkpt lat="46.605376" lon="7.090872"><ele></ele><time>2019-9-4T8:54:4Z</time></trkpt>
<trkpt lat="46.604501" lon="7.091646"><ele></ele><time>2019-9-4T8:54:7Z</time></trkpt>
<trkpt lat="46.603676" lon="7.091907"><ele></ele><time>2019-9-4T8:54:10Z</time></trkpt>
<trkpt lat="46.602952" lon="7.092002"><ele></ele><time>2019-9-4T8:54:13Z</time></trkpt>
<trkpt lat="46.602687" lon="7.092035"><ele></ele><time>2019-9-4T8:54:16Z</time></trkpt>
<trkpt lat="46.602687" lon="7.092035"><ele></ele><time>2019-9-4T8:54:19Z</time></trkpt>
<trkpt lat="46.602687" lon="7.092035"><ele></ele><time>2019-9-4T8:54:22Z</time></trkpt>
<trkpt lat="46.602687" lon="7.092035"><ele></ele><time>2019-9-4T8:54:25Z</time></trkpt>
<trkpt lat="46.602687" lon="7.092035"><ele></ele><time>2019-9-4T8:54:28Z</time></trkpt>
</trkseg></trk></gpx>